<?xml version='1.0' encoding='UTF-8'?><gpx version="1.1" creator="JPX - https://github.com/jenetics/jpx" xmlns="http://www.topografix.com/GPX/1/1"><trk><trkseg><trkpt lat="45.59450856754733" lon="10.134453569063496"><ele>164.0</ele><time>2026-03-26T16:50:14.001Z</time></trkpt><trkpt lat="45.59451333306791" lon="10.134348811090199"><ele>164.0</ele><time>2026-03-26T16:50:19.001Z</time></trkpt><trkpt lat="45.59453016179964" lon="10.134224384853795"><ele>164.0</ele><time>2026-03-26T16:50:23.001Z</time></trkpt><trkpt lat="45.59456285970466" lon="10.13413539551663"><ele>164.0</ele><time>2026-03-26T16:50:26.001Z</time></trkpt><trkpt lat="45.59457260218682" lon="10.134038821448415"><ele>164.0</ele><time>2026-03-26T16:50:29.001Z</time></trkpt><trkpt lat="45.594583359579154" lon="10.133925502851598"><ele>164.0</ele><time>2026-03-26T16:50:32.001Z</time></trkpt><trkpt lat="45.5946020623097" lon="10.133813651962285"><ele>163.99999999999997</ele><time>2026-03-26T16:50:36.001Z</time></trkpt><trkpt lat="45.594622645042634" lon="10.133724587318579"><ele>164.0</ele><time>2026-03-26T16:50:39.001Z</time></trkpt><trkpt lat="45.59462684768971" lon="10.133626434173003"><ele>164.0</ele><time>2026-03-26T16:50:42.001Z</time></trkpt><trkpt lat="45.594647106861295" lon="10.13352645846104"><ele>164.0</ele><time>2026-03-26T16:50:45.001Z</time></trkpt><trkpt lat="45.59466312834108" lon="10.133425306453484"><ele>164.0</ele><time>2026-03-26T16:50:48.001Z</time></trkpt><trkpt lat="45.5946878209872" lon="10.133325872102459"><ele>163.99999999999997</ele><time>2026-03-26T16:50:51.001Z</time></trkpt><trkpt lat="45.59471187216189" lon="10.133213330600404"><ele>164.0</ele><time>2026-03-26T16:50:54.001Z</time></trkpt><trkpt lat="45.594723816048216" lon="10.13311745765082"><ele>163.57142857142856</ele><time>2026-03-26T16:50:57.001Z</time></trkpt><trkpt lat="45.594746771419295" lon="10.133017241201488"><ele>163.14285714285714</ele><time>2026-03-26T16:51:00.001Z</time></trkpt><trkpt lat="45.5947732205198" lon="10.132919456822522"><ele>162.71428571428572</ele><time>2026-03-26T16:51:03.001Z</time></trkpt><trkpt lat="45.59479770915159" lon="10.13283201679149"><ele>162.28571428571428</ele><time>2026-03-26T16:51:06.001Z</time></trkpt><trkpt lat="45.594814271794405" lon="10.132738720090533"><ele>161.85714285714286</ele><time>2026-03-26T16:51:09.001Z</time></trkpt><trkpt lat="45.594834645370746" lon="10.132639993800183"><ele>161.42857142857142</ele><time>2026-03-26T16:51:12.001Z</time></trkpt><trkpt lat="45.5948433293244" lon="10.13254961620975"><ele>161.0</ele><time>2026-03-26T16:51:15.001Z</time></trkpt><trkpt lat="45.59486364614269" lon="10.132458478291554"><ele>160.85714285714286</ele><time>2026-03-26T16:51:18.001Z</time></trkpt><trkpt lat="45.59487766474355" lon="10.132346572692168"><ele>160.71428571428572</ele><time>2026-03-26T16:51:21.001Z</time></trkpt><trkpt lat="45.594897924839856" lon="10.132235404651162"><ele>160.57142857142856</ele><time>2026-03-26T16:51:24.001Z</time></trkpt><trkpt lat="45.594909903111265" lon="10.132142244295938"><ele>160.42857142857144</ele><time>2026-03-26T16:51:27.001Z</time></trkpt><trkpt lat="45.59492581264533" lon="10.132049764482767"><ele>160.28571428571428</ele><time>2026-03-26T16:51:30.001Z</time></trkpt><trkpt lat="45.59494360250447" lon="10.131955946418884"><ele>160.14285714285714</ele><time>2026-03-26T16:51:33.001Z</time></trkpt><trkpt lat="45.59496123576736" lon="10.131864187537964"><ele>160.0</ele><time>2026-03-26T16:51:36.001Z</time></trkpt><trkpt lat="45.59498617833052" lon="10.131759812027987"><ele>160.0</ele><time>2026-03-26T16:51:39.001Z</time></trkpt><trkpt lat="45.59501185663932" lon="10.131660594193447"><ele>160.0</ele><time>2026-03-26T16:51:42.001Z</time></trkpt><trkpt lat="45.5950694505716" lon="10.131606073757432"><ele>160.0</ele><time>2026-03-26T16:51:45.001Z</time></trkpt><trkpt lat="45.59513451782489" lon="10.131596659545282"><ele>160.0</ele><time>2026-03-26T16:51:48.001Z</time></trkpt><trkpt lat="45.59520054174696" lon="10.131588591323629"><ele>160.0</ele><time>2026-03-26T16:51:51.001Z</time></trkpt><trkpt lat="45.5952648700793" lon="10.13158625729412"><ele>160.0</ele><time>2026-03-26T16:51:54.001Z</time></trkpt><trkpt lat="45.595334829603765" lon="10.131597377075812"><ele>160.0</ele><time>2026-03-26T16:51:57.001Z</time></trkpt><trkpt lat="45.59539740047256" lon="10.13161958358458"><ele>160.71428571428572</ele><time>2026-03-26T16:52:00.001Z</time></trkpt><trkpt lat="45.59546178315647" lon="10.131623392436943"><ele>161.42857142857144</ele><time>2026-03-26T16:52:03.001Z</time></trkpt><trkpt lat="45.59552629965856" lon="10.131608703709398"><ele>162.14285714285717</ele><time>2026-03-26T16:52:06.001Z</time></trkpt><trkpt lat="45.59558412327581" lon="10.131565936221335"><ele>162.85714285714286</ele><time>2026-03-26T16:52:09.001Z</time></trkpt><trkpt lat="45.595652227602486" lon="10.131564222523673"><ele>163.57142857142858</ele><time>2026-03-26T16:52:12.001Z</time></trkpt><trkpt lat="45.595717559563845" lon="10.13163159219036"><ele>164.2857142857143</ele><time>2026-03-26T16:52:15.001Z</time></trkpt><trkpt lat="45.59578573735812" lon="10.131696599028531"><ele>165.0</ele><time>2026-03-26T16:52:18.001Z</time></trkpt><trkpt lat="45.59585891986683" lon="10.131752200416303"><ele>165.00000000000003</ele><time>2026-03-26T16:52:21.001Z</time></trkpt><trkpt lat="45.595928237605214" lon="10.13180373120627"><ele>165.0</ele><time>2026-03-26T16:52:24.001Z</time></trkpt><trkpt lat="45.59599700073824" lon="10.131862773967041"><ele>165.0</ele><time>2026-03-26T16:52:27.001Z</time></trkpt><trkpt lat="45.59606081602526" lon="10.13192514701093"><ele>165.0</ele><time>2026-03-26T16:52:30.001Z</time></trkpt><trkpt lat="45.59612337739967" lon="10.13198961194234"><ele>165.0</ele><time>2026-03-26T16:52:33.001Z</time></trkpt><trkpt lat="45.59618072513544" lon="10.132051201778568"><ele>165.00000000000003</ele><time>2026-03-26T16:52:36.001Z</time></trkpt><trkpt lat="45.596226362914926" lon="10.132114774394068"><ele>165.0</ele><time>2026-03-26T16:52:39.001Z</time></trkpt><trkpt lat="45.596309007961956" lon="10.13215594505216"><ele>165.33333333333334</ele><time>2026-03-26T16:52:42.001Z</time></trkpt><trkpt lat="45.59638842565041" lon="10.132136691783755"><ele>165.66666666666666</ele><time>2026-03-26T16:52:45.001Z</time></trkpt><trkpt lat="45.59645602217146" lon="10.132064152975417"><ele>166.0</ele><time>2026-03-26T16:52:49.001Z</time></trkpt><trkpt lat="45.59650560539595" lon="10.131977905171972"><ele>166.33333333333331</ele><time>2026-03-26T16:52:52.001Z</time></trkpt><trkpt lat="45.59655621441566" lon="10.131888456641114"><ele>166.66666666666666</ele><time>2026-03-26T16:52:55.001Z</time></trkpt><trkpt lat="45.596603454146155" lon="10.13179736758656"><ele>167.0</ele><time>2026-03-26T16:52:58.001Z</time></trkpt><trkpt lat="45.59663229561125" lon="10.131696859516097"><ele>167.0</ele><time>2026-03-26T16:53:01.001Z</time></trkpt><trkpt lat="45.59664908450978" lon="10.13159528416524"><ele>167.0</ele><time>2026-03-26T16:53:04.001Z</time></trkpt><trkpt lat="45.596681296677716" lon="10.131500429105289"><ele>167.0</ele><time>2026-03-26T16:53:07.001Z</time></trkpt><trkpt lat="45.596705711589074" lon="10.131406319335309"><ele>167.0</ele><time>2026-03-26T16:53:10.001Z</time></trkpt><trkpt lat="45.596729322535666" lon="10.131310467441354"><ele>167.0</ele><time>2026-03-26T16:53:13.001Z</time></trkpt><trkpt lat="45.59675853477016" lon="10.131218749175352"><ele>167.0</ele><time>2026-03-26T16:53:16.001Z</time></trkpt><trkpt lat="45.59677652485942" lon="10.131123069338884"><ele>167.0</ele><time>2026-03-26T16:53:19.001Z</time></trkpt><trkpt lat="45.59679351291149" lon="10.131032200073566"><ele>166.57142857142856</ele><time>2026-03-26T16:53:22.001Z</time></trkpt><trkpt lat="45.5967940166113" lon="10.130926019104384"><ele>166.14285714285714</ele><time>2026-03-26T16:53:25.001Z</time></trkpt><trkpt lat="45.59679169044063" lon="10.13081943212644"><ele>165.71428571428572</ele><time>2026-03-26T16:53:28.001Z</time></trkpt><trkpt lat="45.59678983264927" lon="10.130710219352023"><ele>165.28571428571428</ele><time>2026-03-26T16:53:31.001Z</time></trkpt><trkpt lat="45.596777062686655" lon="10.130610082485251"><ele>164.85714285714286</ele><time>2026-03-26T16:53:34.001Z</time></trkpt><trkpt lat="45.596776544314025" lon="10.130506959703405"><ele>164.42857142857142</ele><time>2026-03-26T16:53:37.001Z</time></trkpt><trkpt lat="45.596772876086376" lon="10.130402214239972"><ele>164.0</ele><time>2026-03-26T16:53:40.001Z</time></trkpt><trkpt lat="45.59678192143737" lon="10.13030370675889"><ele>163.85714285714283</ele><time>2026-03-26T16:53:43.001Z</time></trkpt><trkpt lat="45.5967787400916" lon="10.130200787618934"><ele>163.71428571428572</ele><time>2026-03-26T16:53:46.001Z</time></trkpt><trkpt lat="45.59679043193032" lon="10.130103777489186"><ele>163.57142857142856</ele><time>2026-03-26T16:53:49.001Z</time></trkpt><trkpt lat="45.596790269475754" lon="10.130000970524543"><ele>163.42857142857142</ele><time>2026-03-26T16:53:52.001Z</time></trkpt><trkpt lat="45.59679886648112" lon="10.12990531708744"><ele>163.28571428571428</ele><time>2026-03-26T16:53:55.001Z</time></trkpt><trkpt lat="45.59680007347923" lon="10.129799853468452"><ele>163.14285714285714</ele><time>2026-03-26T16:53:58.001Z</time></trkpt><trkpt lat="45.59680209454851" lon="10.129699221401745"><ele>163.0</ele><time>2026-03-26T16:54:01.001Z</time></trkpt><trkpt lat="45.59680055548059" lon="10.12959044530334"><ele>163.0</ele><time>2026-03-26T16:54:04.001Z</time></trkpt><trkpt lat="45.59680668068465" lon="10.129491830692228"><ele>163.0</ele><time>2026-03-26T16:54:07.001Z</time></trkpt><trkpt lat="45.59679616383141" lon="10.129397124945683"><ele>163.0</ele><time>2026-03-26T16:54:11.001Z</time></trkpt><trkpt lat="45.596781937052576" lon="10.129287800251493"><ele>163.0</ele><time>2026-03-26T16:54:14.001Z</time></trkpt><trkpt lat="45.59673708950119" lon="10.129195740316568"><ele>163.0</ele><time>2026-03-26T16:54:17.001Z</time></trkpt><trkpt lat="45.59670632981771" lon="10.129104030840056"><ele>163.0</ele><time>2026-03-26T16:54:20.001Z</time></trkpt><trkpt lat="45.59669130377515" lon="10.128996653527556"><ele>163.0</ele><time>2026-03-26T16:54:23.001Z</time></trkpt><trkpt lat="45.596681897616655" lon="10.12889080622168"><ele>163.0</ele><time>2026-03-26T16:54:26.001Z</time></trkpt><trkpt lat="45.59666630123739" lon="10.128786757132458"><ele>163.0</ele><time>2026-03-26T16:54:29.001Z</time></trkpt><trkpt lat="45.596652419547326" lon="10.128686198547538"><ele>163.0</ele><time>2026-03-26T16:54:32.001Z</time></trkpt><trkpt lat="45.59663827557877" lon="10.128589757364873"><ele>163.0</ele><time>2026-03-26T16:54:35.001Z</time></trkpt><trkpt lat="45.596627679860205" lon="10.128497547404441"><ele>163.0</ele><time>2026-03-26T16:54:38.001Z</time></trkpt><trkpt lat="45.59661294736441" lon="10.128403975971173"><ele>163.0</ele><time>2026-03-26T16:54:41.001Z</time></trkpt><trkpt lat="45.59660316705107" lon="10.128309660123536"><ele>163.0</ele><time>2026-03-26T16:54:44.001Z</time></trkpt><trkpt lat="45.596588689085166" lon="10.128219347340684"><ele>163.0</ele><time>2026-03-26T16:54:47.001Z</time></trkpt><trkpt lat="45.59657637514056" lon="10.128130227654237"><ele>163.0</ele><time>2026-03-26T16:54:51.001Z</time></trkpt><trkpt lat="45.59656260477439" lon="10.1280297495972"><ele>163.0</ele><time>2026-03-26T16:54:55.001Z</time></trkpt><trkpt lat="45.596549394804796" lon="10.127931682381844"><ele>163.0</ele><time>2026-03-26T16:54:59.001Z</time></trkpt><trkpt lat="45.59653730125838" lon="10.12782174570238"><ele>163.0</ele><time>2026-03-26T16:55:03.001Z</time></trkpt><trkpt lat="45.59652873933949" lon="10.12771206310442"><ele>163.0</ele><time>2026-03-26T16:55:07.001Z</time></trkpt><trkpt lat="45.59652472141676" lon="10.127600795723204"><ele>163.0</ele><time>2026-03-26T16:55:11.001Z</time></trkpt><trkpt lat="45.59651769439672" lon="10.127493824991797"><ele>163.2857142857143</ele><time>2026-03-26T16:55:15.001Z</time></trkpt><trkpt lat="45.596530626878575" lon="10.127388321784773"><ele>163.57142857142856</ele><time>2026-03-26T16:55:19.001Z</time></trkpt><trkpt lat="45.59654017216496" lon="10.127283008285055"><ele>163.85714285714286</ele><time>2026-03-26T16:55:23.001Z</time></trkpt><trkpt lat="45.59654908019575" lon="10.127167038629661"><ele>164.14285714285717</ele><time>2026-03-26T16:55:27.001Z</time></trkpt><trkpt lat="45.5965427612263" lon="10.127052143593048"><ele>164.42857142857144</ele><time>2026-03-26T16:55:31.001Z</time></trkpt><trkpt lat="45.596541886603674" lon="10.126961623435474"><ele>164.71428571428572</ele><time>2026-03-26T16:55:34.001Z</time></trkpt><trkpt lat="45.59654699051994" lon="10.126870728337698"><ele>165.0</ele><time>2026-03-26T16:55:37.001Z</time></trkpt><trkpt lat="45.59656922908424" lon="10.1267839671623"><ele>165.0</ele><time>2026-03-26T16:55:40.001Z</time></trkpt><trkpt lat="45.59656997646964" lon="10.12668167221913"><ele>165.0</ele><time>2026-03-26T16:55:43.001Z</time></trkpt><trkpt lat="45.59657332237423" lon="10.126581750363394"><ele>165.0</ele><time>2026-03-26T16:55:46.001Z</time></trkpt><trkpt lat="45.59656256088811" lon="10.126475169117915"><ele>165.0</ele><time>2026-03-26T16:55:49.001Z</time></trkpt><trkpt lat="45.596564677338584" lon="10.1263686162443"><ele>165.0</ele><time>2026-03-26T16:55:52.001Z</time></trkpt><trkpt lat="45.596568322294125" lon="10.126250754344158"><ele>165.0</ele><time>2026-03-26T16:55:55.001Z</time></trkpt><trkpt lat="45.59657465894979" lon="10.126137609882923"><ele>165.5</ele><time>2026-03-26T16:55:58.001Z</time></trkpt><trkpt lat="45.596571433168215" lon="10.126019316211377"><ele>166.0</ele><time>2026-03-26T16:56:01.001Z</time></trkpt><trkpt lat="45.5965445411389" lon="10.12589592819594"><ele>166.5</ele><time>2026-03-26T16:56:04.001Z</time></trkpt><trkpt lat="45.59652307350554" lon="10.12577905903736"><ele>167.0</ele><time>2026-03-26T16:56:07.001Z</time></trkpt><trkpt lat="45.596513159162285" lon="10.125660847624685"><ele>167.5</ele><time>2026-03-26T16:56:10.001Z</time></trkpt><trkpt lat="45.59650870268611" lon="10.125544954964937"><ele>168.0</ele><time>2026-03-26T16:56:13.001Z</time></trkpt><trkpt lat="45.59651537623884" lon="10.125446526714324"><ele>168.0</ele><time>2026-03-26T16:56:16.001Z</time></trkpt><trkpt lat="45.59652458109657" lon="10.12534542178721"><ele>168.0</ele><time>2026-03-26T16:56:19.001Z</time></trkpt><trkpt lat="45.59656826904576" lon="10.12523862036956"><ele>168.0</ele><time>2026-03-26T16:56:23.001Z</time></trkpt><trkpt lat="45.596614033134315" lon="10.125152585908245"><ele>168.0</ele><time>2026-03-26T16:56:26.001Z</time></trkpt><trkpt lat="45.5966326892389" lon="10.125049561735132"><ele>168.0</ele><time>2026-03-26T16:56:29.001Z</time></trkpt><trkpt lat="45.59663431120215" lon="10.124945034588762"><ele>168.0</ele><time>2026-03-26T16:56:32.001Z</time></trkpt><trkpt lat="45.59661988721088" lon="10.12483909491248"><ele>168.0</ele><time>2026-03-26T16:56:35.001Z</time></trkpt><trkpt lat="45.596617052672876" lon="10.124735886371461"><ele>168.0</ele><time>2026-03-26T16:56:38.001Z</time></trkpt><trkpt lat="45.596600022118686" lon="10.124620617042538"><ele>168.0</ele><time>2026-03-26T16:56:42.001Z</time></trkpt><trkpt lat="45.59658789501121" lon="10.12450463070098"><ele>168.0</ele><time>2026-03-26T16:56:45.001Z</time></trkpt><trkpt lat="45.59659114710352" lon="10.124386633708685"><ele>168.0</ele><time>2026-03-26T16:56:48.001Z</time></trkpt><trkpt lat="45.5965706455747" lon="10.12428366456527"><ele>168.0</ele><time>2026-03-26T16:56:51.001Z</time></trkpt><trkpt lat="45.596569355171084" lon="10.124182391773594"><ele>168.0</ele><time>2026-03-26T16:56:54.001Z</time></trkpt><trkpt lat="45.59654383600107" lon="10.124096160166616"><ele>168.0</ele><time>2026-03-26T16:56:57.001Z</time></trkpt><trkpt lat="45.59654444960975" lon="10.123987637837761"><ele>168.0</ele><time>2026-03-26T16:57:00.001Z</time></trkpt><trkpt lat="45.596544079564055" lon="10.123877978834837"><ele>168.0</ele><time>2026-03-26T16:57:03.001Z</time></trkpt><trkpt lat="45.596550657195536" lon="10.123765360422372"><ele>168.0</ele><time>2026-03-26T16:57:06.001Z</time></trkpt><trkpt lat="45.59655280083997" lon="10.123655639433615"><ele>168.0</ele><time>2026-03-26T16:57:09.001Z</time></trkpt><trkpt lat="45.59654699372213" lon="10.12354707987519"><ele>168.0</ele><time>2026-03-26T16:57:12.001Z</time></trkpt><trkpt lat="45.59655135626928" lon="10.123436365250072"><ele>168.0</ele><time>2026-03-26T16:57:15.001Z</time></trkpt><trkpt lat="45.59656185900576" lon="10.123325658088701"><ele>168.0</ele><time>2026-03-26T16:57:18.001Z</time></trkpt><trkpt lat="45.59657480848776" lon="10.123217271602734"><ele>168.0</ele><time>2026-03-26T16:57:21.001Z</time></trkpt><trkpt lat="45.596576534275535" lon="10.123108557137158"><ele>168.0</ele><time>2026-03-26T16:57:24.001Z</time></trkpt><trkpt lat="45.596568229612956" lon="10.123001582491876"><ele>168.0</ele><time>2026-03-26T16:57:27.001Z</time></trkpt><trkpt lat="45.59655748104995" lon="10.122898947128888"><ele>167.66666666666666</ele><time>2026-03-26T16:57:30.001Z</time></trkpt><trkpt lat="45.59653746267454" lon="10.122800565598638"><ele>167.33333333333334</ele><time>2026-03-26T16:57:33.001Z</time></trkpt><trkpt lat="45.59653883422896" lon="10.122692015611605"><ele>167.0</ele><time>2026-03-26T16:57:36.001Z</time></trkpt><trkpt lat="45.59652703043539" lon="10.1225855008275"><ele>166.66666666666669</ele><time>2026-03-26T16:57:39.001Z</time></trkpt><trkpt lat="45.59653408327174" lon="10.12247679383372"><ele>166.33333333333334</ele><time>2026-03-26T16:57:42.001Z</time></trkpt><trkpt lat="45.59654626017987" lon="10.122368961432143"><ele>166.0</ele><time>2026-03-26T16:57:45.001Z</time></trkpt><trkpt lat="45.59654997439899" lon="10.122256148372646"><ele>165.83333333333334</ele><time>2026-03-26T16:57:48.001Z</time></trkpt><trkpt lat="45.59657699121071" lon="10.122147295210459"><ele>165.66666666666669</ele><time>2026-03-26T16:57:51.001Z</time></trkpt><trkpt lat="45.59662498150595" lon="10.12208704791254"><ele>165.5</ele><time>2026-03-26T16:57:53.001Z</time></trkpt><trkpt lat="45.59667279450044" lon="10.121979954502295"><ele>165.33333333333334</ele><time>2026-03-26T16:57:56.001Z</time></trkpt><trkpt lat="45.596697983461084" lon="10.121881936325112"><ele>165.16666666666666</ele><time>2026-03-26T16:58:00.001Z</time></trkpt><trkpt lat="45.59671706019959" lon="10.121785980023029"><ele>165.0</ele><time>2026-03-26T16:58:03.001Z</time></trkpt><trkpt lat="45.59674146690719" lon="10.121674161749638"><ele>165.0</ele><time>2026-03-26T16:58:07.001Z</time></trkpt><trkpt lat="45.59676124138744" lon="10.121566513431302"><ele>165.0</ele><time>2026-03-26T16:58:11.001Z</time></trkpt><trkpt lat="45.596776831135365" lon="10.121454154434229"><ele>165.0</ele><time>2026-03-26T16:58:15.001Z</time></trkpt><trkpt lat="45.59678970406505" lon="10.12133101137899"><ele>165.0</ele><time>2026-03-26T16:58:19.001Z</time></trkpt><trkpt lat="45.59680632399946" lon="10.121229634950765"><ele>165.0</ele><time>2026-03-26T16:58:22.001Z</time></trkpt><trkpt lat="45.596818659519705" lon="10.121136763525975"><ele>165.0</ele><time>2026-03-26T16:58:25.001Z</time></trkpt><trkpt lat="45.596821490991246" lon="10.121027444203515"><ele>165.0</ele><time>2026-03-26T16:58:29.001Z</time></trkpt><trkpt lat="45.59682593916509" lon="10.120920117618226"><ele>165.0</ele><time>2026-03-26T16:58:33.001Z</time></trkpt><trkpt lat="45.59682905152131" lon="10.120817353566403"><ele>165.0</ele><time>2026-03-26T16:58:36.001Z</time></trkpt><trkpt lat="45.59683299723633" lon="10.120704449946807"><ele>165.0</ele><time>2026-03-26T16:58:39.001Z</time></trkpt><trkpt lat="45.59683822734133" lon="10.120590613201234"><ele>165.0</ele><time>2026-03-26T16:58:42.001Z</time></trkpt><trkpt lat="45.596846858832144" lon="10.12048444104098"><ele>165.0</ele><time>2026-03-26T16:58:45.001Z</time></trkpt><trkpt lat="45.59686708158517" lon="10.120380795398951"><ele>165.16666666666666</ele><time>2026-03-26T16:58:48.001Z</time></trkpt><trkpt lat="45.59686904814186" lon="10.120265710845112"><ele>165.33333333333334</ele><time>2026-03-26T16:58:51.001Z</time></trkpt><trkpt lat="45.596885009999845" lon="10.120146056281646"><ele>165.5</ele><time>2026-03-26T16:58:54.001Z</time></trkpt><trkpt lat="45.59689143351478" lon="10.120040084217163"><ele>165.66666666666669</ele><time>2026-03-26T16:58:57.001Z</time></trkpt><trkpt lat="45.59689473167937" lon="10.119929940917302"><ele>165.83333333333334</ele><time>2026-03-26T16:59:00.001Z</time></trkpt><trkpt lat="45.59690034102107" lon="10.119812709515244"><ele>166.0</ele><time>2026-03-26T16:59:03.001Z</time></trkpt><trkpt lat="45.596904618907665" lon="10.119697443158035"><ele>166.42857142857142</ele><time>2026-03-26T16:59:07.001Z</time></trkpt><trkpt lat="45.59690937770406" lon="10.119606193590602"><ele>166.85714285714286</ele><time>2026-03-26T16:59:10.001Z</time></trkpt><trkpt lat="45.59690926946582" lon="10.119491824297667"><ele>167.28571428571428</ele><time>2026-03-26T16:59:14.001Z</time></trkpt><trkpt lat="45.59691709895322" lon="10.119402012524437"><ele>167.71428571428572</ele><time>2026-03-26T16:59:17.001Z</time></trkpt><trkpt lat="45.59692898454956" lon="10.119299086597483"><ele>168.14285714285714</ele><time>2026-03-26T16:59:20.001Z</time></trkpt><trkpt lat="45.59695067198368" lon="10.119186190150005"><ele>168.57142857142858</ele><time>2026-03-26T16:59:24.001Z</time></trkpt><trkpt lat="45.59696279293508" lon="10.119096748030795"><ele>169.0</ele><time>2026-03-26T16:59:27.001Z</time></trkpt><trkpt lat="45.59697463654344" lon="10.119001686529002"><ele>169.0</ele><time>2026-03-26T16:59:30.001Z</time></trkpt><trkpt lat="45.59696933547642" lon="10.118904454193387"><ele>169.0</ele><time>2026-03-26T16:59:33.001Z</time></trkpt><trkpt lat="45.59700156656483" lon="10.118817343676161"><ele>169.0</ele><time>2026-03-26T16:59:36.002Z</time></trkpt><trkpt lat="45.597015010065924" lon="10.118703618430585"><ele>169.0</ele><time>2026-03-26T16:59:40.002Z</time></trkpt><trkpt lat="45.59700832896233" lon="10.118590909115106"><ele>169.0</ele><time>2026-03-26T16:59:44.002Z</time></trkpt><trkpt lat="45.597021558705606" lon="10.118480103109285"><ele>169.0</ele><time>2026-03-26T16:59:48.002Z</time></trkpt><trkpt lat="45.5970202155695" lon="10.118387829252613"><ele>169.0</ele><time>2026-03-26T16:59:51.002Z</time></trkpt><trkpt lat="45.5970310912128" lon="10.118270469169452"><ele>169.14285714285714</ele><time>2026-03-26T16:59:55.002Z</time></trkpt><trkpt lat="45.59704449452549" lon="10.118176038164009"><ele>169.28571428571428</ele><time>2026-03-26T16:59:58.002Z</time></trkpt><trkpt lat="45.59706338226169" lon="10.118090172630895"><ele>169.42857142857144</ele><time>2026-03-26T17:00:01.002Z</time></trkpt><trkpt lat="45.5970754827923" lon="10.117979060871438"><ele>169.57142857142856</ele><time>2026-03-26T17:00:04.002Z</time></trkpt><trkpt lat="45.59708279993018" lon="10.117889455267441"><ele>169.7142857142857</ele><time>2026-03-26T17:00:07.002Z</time></trkpt><trkpt lat="45.59710126519594" lon="10.117772752186248"><ele>169.85714285714286</ele><time>2026-03-26T17:00:10.002Z</time></trkpt><trkpt lat="45.597126953573856" lon="10.11765982008711"><ele>170.0</ele><time>2026-03-26T17:00:13.002Z</time></trkpt><trkpt lat="45.59713309010378" lon="10.117532361635876"><ele>170.0</ele><time>2026-03-26T17:00:16.002Z</time></trkpt><trkpt lat="45.59712708028595" lon="10.117434940510734"><ele>170.0</ele><time>2026-03-26T17:00:18.002Z</time></trkpt><trkpt lat="45.59711550638474" lon="10.117344546677078"><ele>170.0</ele><time>2026-03-26T17:00:20.002Z</time></trkpt><trkpt lat="45.59711533405119" lon="10.117251184165166"><ele>170.0</ele><time>2026-03-26T17:00:22.002Z</time></trkpt><trkpt lat="45.59711290590904" lon="10.11712437960738"><ele>170.0</ele><time>2026-03-26T17:00:25.002Z</time></trkpt><trkpt lat="45.59711317770721" lon="10.11699722323692"><ele>170.0</ele><time>2026-03-26T17:00:28.002Z</time></trkpt><trkpt lat="45.59710886209383" lon="10.116886839331807"><ele>170.16666666666666</ele><time>2026-03-26T17:00:31.002Z</time></trkpt><trkpt lat="45.597111667545555" lon="10.116765551138714"><ele>170.33333333333331</ele><time>2026-03-26T17:00:34.002Z</time></trkpt><trkpt lat="45.59711541987638" lon="10.11665062800257"><ele>170.5</ele><time>2026-03-26T17:00:37.002Z</time></trkpt><trkpt lat="45.59710908857622" lon="10.116527302264492"><ele>170.66666666666666</ele><time>2026-03-26T17:00:40.002Z</time></trkpt><trkpt lat="45.59710300176789" lon="10.116408064190193"><ele>170.83333333333334</ele><time>2026-03-26T17:00:43.002Z</time></trkpt><trkpt lat="45.59709389892479" lon="10.116291659962837"><ele>171.0</ele><time>2026-03-26T17:00:46.002Z</time></trkpt><trkpt lat="45.597094724442144" lon="10.11617491729318"><ele>171.16666666666666</ele><time>2026-03-26T17:00:49.002Z</time></trkpt><trkpt lat="45.59709358525162" lon="10.116064977567923"><ele>171.33333333333334</ele><time>2026-03-26T17:00:52.002Z</time></trkpt><trkpt lat="45.59707970894991" lon="10.115945112324546"><ele>171.5</ele><time>2026-03-26T17:00:55.002Z</time></trkpt><trkpt lat="45.59708802602539" lon="10.115829955216954"><ele>171.66666666666669</ele><time>2026-03-26T17:00:58.002Z</time></trkpt><trkpt lat="45.59708240268601" lon="10.115712085249289"><ele>171.83333333333334</ele><time>2026-03-26T17:01:01.002Z</time></trkpt><trkpt lat="45.5970542731996" lon="10.115605691075718"><ele>172.0</ele><time>2026-03-26T17:01:04.002Z</time></trkpt><trkpt lat="45.59703451229422" lon="10.115499410444746"><ele>172.0</ele><time>2026-03-26T17:01:07.002Z</time></trkpt><trkpt lat="45.59701994183284" lon="10.115401683538515"><ele>172.0</ele><time>2026-03-26T17:01:10.002Z</time></trkpt><trkpt lat="45.59699625629524" lon="10.11530006410835"><ele>172.0</ele><time>2026-03-26T17:01:13.002Z</time></trkpt><trkpt lat="45.59698877113158" lon="10.115193162856205"><ele>172.0</ele><time>2026-03-26T17:01:16.002Z</time></trkpt><trkpt lat="45.596961025217674" lon="10.11507840735034"><ele>172.0</ele><time>2026-03-26T17:01:19.002Z</time></trkpt><trkpt lat="45.59694467105941" lon="10.11496432386921"><ele>172.0</ele><time>2026-03-26T17:01:22.002Z</time></trkpt><trkpt lat="45.596930017712644" lon="10.114849591751835"><ele>172.0</ele><time>2026-03-26T17:01:25.002Z</time></trkpt><trkpt lat="45.59691333873167" lon="10.114746782002689"><ele>172.0</ele><time>2026-03-26T17:01:28.002Z</time></trkpt><trkpt lat="45.596899307657836" lon="10.114634951590357"><ele>172.0</ele><time>2026-03-26T17:01:31.002Z</time></trkpt><trkpt lat="45.596885399844695" lon="10.114525529623156"><ele>172.0</ele><time>2026-03-26T17:01:34.002Z</time></trkpt><trkpt lat="45.59686755271405" lon="10.114423841968225"><ele>172.0</ele><time>2026-03-26T17:01:37.002Z</time></trkpt><trkpt lat="45.596855549668106" lon="10.114316811675371"><ele>172.0</ele><time>2026-03-26T17:01:40.002Z</time></trkpt><trkpt lat="45.59683727807273" lon="10.114214189762016"><ele>172.00000000000003</ele><time>2026-03-26T17:01:43.002Z</time></trkpt><trkpt lat="45.59682663491125" lon="10.114107332794608"><ele>172.0</ele><time>2026-03-26T17:01:46.002Z</time></trkpt><trkpt lat="45.596814643960904" lon="10.114002504414236"><ele>172.0</ele><time>2026-03-26T17:01:49.002Z</time></trkpt><trkpt lat="45.5968049087567" lon="10.113895217065663"><ele>172.0</ele><time>2026-03-26T17:01:52.002Z</time></trkpt><trkpt lat="45.59679064118709" lon="10.113793081540372"><ele>172.0</ele><time>2026-03-26T17:01:55.002Z</time></trkpt><trkpt lat="45.59677657289148" lon="10.113691961934078"><ele>172.00000000000003</ele><time>2026-03-26T17:01:58.002Z</time></trkpt><trkpt lat="45.59677697663715" lon="10.113587219285275"><ele>172.0</ele><time>2026-03-26T17:02:01.002Z</time></trkpt><trkpt lat="45.596783523511554" lon="10.113478917273802"><ele>172.14285714285717</ele><time>2026-03-26T17:02:04.002Z</time></trkpt><trkpt lat="45.59679380824417" lon="10.113373547154877"><ele>172.28571428571428</ele><time>2026-03-26T17:02:07.002Z</time></trkpt><trkpt lat="45.59679792690244" lon="10.113271968503867"><ele>172.42857142857144</ele><time>2026-03-26T17:02:10.002Z</time></trkpt><trkpt lat="45.59681168791402" lon="10.113162093925803"><ele>172.57142857142858</ele><time>2026-03-26T17:02:13.002Z</time></trkpt><trkpt lat="45.596816917431916" lon="10.113053467187088"><ele>172.71428571428572</ele><time>2026-03-26T17:02:16.002Z</time></trkpt><trkpt lat="45.596825677144324" lon="10.112954697688947"><ele>172.85714285714286</ele><time>2026-03-26T17:02:19.002Z</time></trkpt><trkpt lat="45.596840212112944" lon="10.112844114051663"><ele>173.0</ele><time>2026-03-26T17:02:22.002Z</time></trkpt><trkpt lat="45.59685037285066" lon="10.112744182260453"><ele>173.0</ele><time>2026-03-26T17:02:25.002Z</time></trkpt><trkpt lat="45.59686981115293" lon="10.112647620984111"><ele>173.0</ele><time>2026-03-26T17:02:28.002Z</time></trkpt><trkpt lat="45.596886811271084" lon="10.112550790410422"><ele>173.0</ele><time>2026-03-26T17:02:31.002Z</time></trkpt><trkpt lat="45.59690514260266" lon="10.112445799490338"><ele>173.0</ele><time>2026-03-26T17:02:34.002Z</time></trkpt><trkpt lat="45.59693567569599" lon="10.112337338499676"><ele>173.0</ele><time>2026-03-26T17:02:37.002Z</time></trkpt><trkpt lat="45.5969609678279" lon="10.112248581948348"><ele>173.0</ele><time>2026-03-26T17:02:40.002Z</time></trkpt><trkpt lat="45.59700849855799" lon="10.112154986950355"><ele>173.0</ele><time>2026-03-26T17:02:43.002Z</time></trkpt><trkpt lat="45.59705565223737" lon="10.11208007698785"><ele>173.66666666666666</ele><time>2026-03-26T17:02:46.002Z</time></trkpt><trkpt lat="45.59710264346461" lon="10.111998182501042"><ele>174.33333333333331</ele><time>2026-03-26T17:02:49.002Z</time></trkpt><trkpt lat="45.59715856891234" lon="10.111925265764036"><ele>175.0</ele><time>2026-03-26T17:02:52.002Z</time></trkpt><trkpt lat="45.59718750491868" lon="10.111798051972693"><ele>175.66666666666666</ele><time>2026-03-26T17:02:55.002Z</time></trkpt><trkpt lat="45.59721991791152" lon="10.111689261730133"><ele>176.33333333333334</ele><time>2026-03-26T17:02:58.002Z</time></trkpt><trkpt lat="45.597253696466076" lon="10.111591206896387"><ele>177.0</ele><time>2026-03-26T17:03:01.002Z</time></trkpt><trkpt lat="45.59729813321781" lon="10.111494360168296"><ele>177.0</ele><time>2026-03-26T17:03:04.002Z</time></trkpt><trkpt lat="45.5973630978917" lon="10.111407505571234"><ele>177.0</ele><time>2026-03-26T17:03:07.002Z</time></trkpt><trkpt lat="45.597427353007156" lon="10.111317713731587"><ele>177.0</ele><time>2026-03-26T17:03:10.002Z</time></trkpt><trkpt lat="45.59748213156656" lon="10.11122612856606"><ele>177.0</ele><time>2026-03-26T17:03:13.002Z</time></trkpt><trkpt lat="45.59752951734142" lon="10.111116107649861"><ele>177.0</ele><time>2026-03-26T17:03:16.002Z</time></trkpt><trkpt lat="45.59756031270615" lon="10.111029916650912"><ele>177.0</ele><time>2026-03-26T17:03:18.002Z</time></trkpt><trkpt lat="45.59759399336396" lon="10.110934106534655"><ele>177.0</ele><time>2026-03-26T17:03:20.002Z</time></trkpt><trkpt lat="45.5975928050923" lon="10.110841982637147"><ele>177.0</ele><time>2026-03-26T17:03:22.002Z</time></trkpt><trkpt lat="45.59764305895247" lon="10.110751129234226"><ele>177.0</ele><time>2026-03-26T17:03:25.002Z</time></trkpt><trkpt lat="45.5977229463628" lon="10.110774803207578"><ele>177.0</ele><time>2026-03-26T17:03:28.002Z</time></trkpt><trkpt lat="45.59778548100181" lon="10.110871315874975"><ele>177.0</ele><time>2026-03-26T17:03:31.002Z</time></trkpt><trkpt lat="45.59784834279332" lon="10.1109372629151"><ele>177.0</ele><time>2026-03-26T17:03:34.002Z</time></trkpt><trkpt lat="45.59792288995255" lon="10.110962361695984"><ele>176.57142857142858</ele><time>2026-03-26T17:03:37.002Z</time></trkpt><trkpt lat="45.597986980448496" lon="10.110981456614104"><ele>176.14285714285714</ele><time>2026-03-26T17:03:39.002Z</time></trkpt><trkpt lat="45.59807347051721" lon="10.11100677108507"><ele>175.71428571428572</ele><time>2026-03-26T17:03:42.002Z</time></trkpt><trkpt lat="45.59813254533823" lon="10.111042582229867"><ele>175.28571428571428</ele><time>2026-03-26T17:03:44.002Z</time></trkpt><trkpt lat="45.59819242841046" lon="10.111086974651863"><ele>174.85714285714286</ele><time>2026-03-26T17:03:46.002Z</time></trkpt><trkpt lat="45.59826062664053" lon="10.111114850571765"><ele>174.42857142857142</ele><time>2026-03-26T17:03:48.002Z</time></trkpt><trkpt lat="45.59831230109477" lon="10.111171381381675"><ele>174.0</ele><time>2026-03-26T17:03:50.002Z</time></trkpt><trkpt lat="45.598396827719036" lon="10.11123363343831"><ele>174.0</ele><time>2026-03-26T17:03:53.002Z</time></trkpt><trkpt lat="45.59845889817017" lon="10.111268304558656"><ele>174.0</ele><time>2026-03-26T17:03:55.002Z</time></trkpt><trkpt lat="45.59853946895755" lon="10.111333817735899"><ele>174.0</ele><time>2026-03-26T17:03:58.002Z</time></trkpt><trkpt lat="45.59860182299656" lon="10.111375539064678"><ele>174.0</ele><time>2026-03-26T17:04:00.002Z</time></trkpt><trkpt lat="45.59866311441348" lon="10.111404102316653"><ele>174.0</ele><time>2026-03-26T17:04:02.002Z</time></trkpt><trkpt lat="45.598742239212456" lon="10.111461901608186"><ele>174.0</ele><time>2026-03-26T17:04:05.002Z</time></trkpt><trkpt lat="45.598826989188865" lon="10.11150455610653"><ele>174.2</ele><time>2026-03-26T17:04:08.002Z</time></trkpt><trkpt lat="45.598910374135365" lon="10.11153002172776"><ele>174.39999999999998</ele><time>2026-03-26T17:04:11.002Z</time></trkpt><trkpt lat="45.5990022957459" lon="10.111539173694995"><ele>174.6</ele><time>2026-03-26T17:04:14.002Z</time></trkpt><trkpt lat="45.599123988930565" lon="10.111532417723977"><ele>174.8</ele><time>2026-03-26T17:04:18.002Z</time></trkpt><trkpt lat="45.59920315047938" lon="10.111528522350772"><ele>175.0</ele><time>2026-03-26T17:04:21.002Z</time></trkpt><trkpt lat="45.59935124281616" lon="10.111518547609457"><ele>175.0</ele><time>2026-03-26T17:04:26.002Z</time></trkpt><trkpt lat="45.59943336084518" lon="10.11148780227633"><ele>175.0</ele><time>2026-03-26T17:04:29.002Z</time></trkpt><trkpt lat="45.599507407908305" lon="10.111415790656347"><ele>175.0</ele><time>2026-03-26T17:04:32.002Z</time></trkpt><trkpt lat="45.59957312849779" lon="10.111331377307613"><ele>175.0</ele><time>2026-03-26T17:04:35.002Z</time></trkpt><trkpt lat="45.59963702448442" lon="10.111227450636589"><ele>175.0</ele><time>2026-03-26T17:04:38.002Z</time></trkpt><trkpt lat="45.599680969667254" lon="10.111161759795893"><ele>175.0</ele><time>2026-03-26T17:04:40.002Z</time></trkpt><trkpt lat="45.59972741754316" lon="10.111049051535181"><ele>175.5</ele><time>2026-03-26T17:04:43.002Z</time></trkpt><trkpt lat="45.59978196246512" lon="10.110940863799078"><ele>176.0</ele><time>2026-03-26T17:04:46.002Z</time></trkpt><trkpt lat="45.59982658335468" lon="10.110875031185547"><ele>176.5</ele><time>2026-03-26T17:04:48.002Z</time></trkpt><trkpt lat="45.599888839427074" lon="10.110775717979099"><ele>177.0</ele><time>2026-03-26T17:04:51.002Z</time></trkpt><trkpt lat="45.599953973865745" lon="10.110691158812136"><ele>177.5</ele><time>2026-03-26T17:04:54.002Z</time></trkpt><trkpt lat="45.60003420620181" lon="10.110643187703298"><ele>178.0</ele><time>2026-03-26T17:04:57.002Z</time></trkpt><trkpt lat="45.60011605510067" lon="10.110604258955275"><ele>178.0</ele><time>2026-03-26T17:05:00.002Z</time></trkpt><trkpt lat="45.6001781681966" lon="10.11058946756222"><ele>178.0</ele><time>2026-03-26T17:05:02.002Z</time></trkpt><trkpt lat="45.60026321311519" lon="10.110560642515605"><ele>178.0</ele><time>2026-03-26T17:05:05.002Z</time></trkpt><trkpt lat="45.600482663864575" lon="10.110551224300602"><ele>178.0</ele><time>2026-03-26T17:05:13.002Z</time></trkpt><trkpt lat="45.60065291647288" lon="10.11055619405293"><ele>177.83333333333334</ele><time>2026-03-26T17:05:19.002Z</time></trkpt><trkpt lat="45.60074158497295" lon="10.110571592351235"><ele>177.66666666666669</ele><time>2026-03-26T17:05:22.002Z</time></trkpt><trkpt lat="45.60083213638991" lon="10.110589977616845"><ele>177.5</ele><time>2026-03-26T17:05:25.002Z</time></trkpt><trkpt lat="45.60091787050088" lon="10.110620749336464"><ele>177.33333333333334</ele><time>2026-03-26T17:05:28.002Z</time></trkpt><trkpt lat="45.60100382722165" lon="10.110649430670765"><ele>177.16666666666666</ele><time>2026-03-26T17:05:31.002Z</time></trkpt><trkpt lat="45.6010873035984" lon="10.110692386396353"><ele>177.0</ele><time>2026-03-26T17:05:34.002Z</time></trkpt><trkpt lat="45.60116802920309" lon="10.110758971808366"><ele>177.85714285714286</ele><time>2026-03-26T17:05:37.002Z</time></trkpt><trkpt lat="45.6012225483588" lon="10.110809973436751"><ele>178.7142857142857</ele><time>2026-03-26T17:05:39.002Z</time></trkpt><trkpt lat="45.601282935347946" lon="10.110896792770593"><ele>179.57142857142856</ele><time>2026-03-26T17:05:42.002Z</time></trkpt><trkpt lat="45.60135715260273" lon="10.110968983660873"><ele>180.42857142857144</ele><time>2026-03-26T17:05:45.002Z</time></trkpt><trkpt lat="45.60140702071347" lon="10.111038053566684"><ele>181.28571428571428</ele><time>2026-03-26T17:05:48.002Z</time></trkpt><trkpt lat="45.601443656120345" lon="10.111122152852598"><ele>182.14285714285714</ele><time>2026-03-26T17:05:51.002Z</time></trkpt><trkpt lat="45.601491499199085" lon="10.111195502103632"><ele>183.0</ele><time>2026-03-26T17:05:54.002Z</time></trkpt><trkpt lat="45.60155647462198" lon="10.111262520958386"><ele>183.0</ele><time>2026-03-26T17:05:57.002Z</time></trkpt><trkpt lat="45.601641714060754" lon="10.111277685895091"><ele>183.0</ele><time>2026-03-26T17:06:00.002Z</time></trkpt><trkpt lat="45.60174626980103" lon="10.111302355100726"><ele>183.0</ele><time>2026-03-26T17:06:04.002Z</time></trkpt><trkpt lat="45.601800682039865" lon="10.111348334689943"><ele>183.0</ele><time>2026-03-26T17:06:06.002Z</time></trkpt><trkpt lat="45.6018795601168" lon="10.111411651313333"><ele>183.0</ele><time>2026-03-26T17:06:09.002Z</time></trkpt><trkpt lat="45.601953334035755" lon="10.111487854327661"><ele>183.0</ele><time>2026-03-26T17:06:12.002Z</time></trkpt><trkpt lat="45.602016888566475" lon="10.111568328408083"><ele>183.16666666666666</ele><time>2026-03-26T17:06:15.002Z</time></trkpt><trkpt lat="45.6020728496354" lon="10.11162318827819"><ele>183.33333333333334</ele><time>2026-03-26T17:06:17.002Z</time></trkpt><trkpt lat="45.60214473722031" lon="10.11170439388836"><ele>183.5</ele><time>2026-03-26T17:06:20.002Z</time></trkpt><trkpt lat="45.60220568410206" lon="10.111797513036306"><ele>183.66666666666669</ele><time>2026-03-26T17:06:23.002Z</time></trkpt><trkpt lat="45.60225827792847" lon="10.111851959621628"><ele>183.83333333333334</ele><time>2026-03-26T17:06:25.002Z</time></trkpt><trkpt lat="45.60233174739045" lon="10.111933285462348"><ele>184.0</ele><time>2026-03-26T17:06:28.002Z</time></trkpt><trkpt lat="45.60238932580509" lon="10.112034860591558"><ele>184.0</ele><time>2026-03-26T17:06:31.002Z</time></trkpt><trkpt lat="45.60245362100816" lon="10.112117007493904"><ele>184.0</ele><time>2026-03-26T17:06:34.002Z</time></trkpt><trkpt lat="45.602499473263855" lon="10.112224261631455"><ele>184.0</ele><time>2026-03-26T17:06:37.002Z</time></trkpt><trkpt lat="45.602533315383695" lon="10.112343958671556"><ele>184.0</ele><time>2026-03-26T17:06:40.002Z</time></trkpt><trkpt lat="45.60258582894478" lon="10.112449776447692"><ele>184.0</ele><time>2026-03-26T17:06:43.002Z</time></trkpt><trkpt lat="45.60265809295872" lon="10.112535933036497"><ele>184.0</ele><time>2026-03-26T17:06:46.002Z</time></trkpt><trkpt lat="45.60273044540328" lon="10.112615754242082"><ele>183.0</ele><time>2026-03-26T17:06:49.002Z</time></trkpt><trkpt lat="45.60279507081898" lon="10.112695211572728"><ele>182.0</ele><time>2026-03-26T17:06:52.002Z</time></trkpt><trkpt lat="45.60286450438597" lon="10.112773974992903"><ele>181.0</ele><time>2026-03-26T17:06:55.002Z</time></trkpt><trkpt lat="45.6029333908375" lon="10.112853501817408"><ele>180.0</ele><time>2026-03-26T17:06:58.002Z</time></trkpt><trkpt lat="45.603004178528984" lon="10.112927946663874"><ele>179.0</ele><time>2026-03-26T17:07:01.002Z</time></trkpt><trkpt lat="45.60306512250167" lon="10.113003791934794"><ele>178.0</ele><time>2026-03-26T17:07:04.002Z</time></trkpt><trkpt lat="45.603133604277595" lon="10.113072924448714"><ele>178.0</ele><time>2026-03-26T17:07:07.002Z</time></trkpt><trkpt lat="45.603204559708836" lon="10.113137667860926"><ele>178.0</ele><time>2026-03-26T17:07:10.002Z</time></trkpt><trkpt lat="45.6032673655844" lon="10.113211158055494"><ele>178.0</ele><time>2026-03-26T17:07:13.002Z</time></trkpt><trkpt lat="45.60333889061375" lon="10.113279739223104"><ele>178.0</ele><time>2026-03-26T17:07:16.002Z</time></trkpt><trkpt lat="45.60340571459286" lon="10.113347346237175"><ele>178.0</ele><time>2026-03-26T17:07:19.002Z</time></trkpt><trkpt lat="45.60346940896355" lon="10.113427902100732"><ele>178.0</ele><time>2026-03-26T17:07:22.002Z</time></trkpt><trkpt lat="45.60353828127434" lon="10.113497530277543"><ele>178.33333333333334</ele><time>2026-03-26T17:07:25.002Z</time></trkpt><trkpt lat="45.60361130873488" lon="10.11356292039202"><ele>178.66666666666669</ele><time>2026-03-26T17:07:28.002Z</time></trkpt><trkpt lat="45.60368578138539" lon="10.113627155374331"><ele>179.0</ele><time>2026-03-26T17:07:31.002Z</time></trkpt><trkpt lat="45.60374158743063" lon="10.113698643507629"><ele>179.33333333333334</ele><time>2026-03-26T17:07:34.002Z</time></trkpt><trkpt lat="45.60381688968906" lon="10.113770961899265"><ele>179.66666666666666</ele><time>2026-03-26T17:07:37.002Z</time></trkpt><trkpt lat="45.60389013581165" lon="10.113835279258945"><ele>180.0</ele><time>2026-03-26T17:07:40.002Z</time></trkpt><trkpt lat="45.603961131516876" lon="10.113907934235275"><ele>180.33333333333334</ele><time>2026-03-26T17:07:43.002Z</time></trkpt><trkpt lat="45.60402432006597" lon="10.113980855989855"><ele>180.66666666666666</ele><time>2026-03-26T17:07:46.002Z</time></trkpt><trkpt lat="45.60408911825254" lon="10.11405384694502"><ele>181.0</ele><time>2026-03-26T17:07:49.002Z</time></trkpt><trkpt lat="45.60415808097935" lon="10.114128487599041"><ele>181.33333333333331</ele><time>2026-03-26T17:07:52.002Z</time></trkpt><trkpt lat="45.60422787771348" lon="10.114194972764274"><ele>181.66666666666666</ele><time>2026-03-26T17:07:55.002Z</time></trkpt><trkpt lat="45.6043061288853" lon="10.11423742451558"><ele>182.0</ele><time>2026-03-26T17:07:58.002Z</time></trkpt><trkpt lat="45.60438522265814" lon="10.11420898195153"><ele>182.33333333333331</ele><time>2026-03-26T17:08:01.002Z</time></trkpt><trkpt lat="45.60443809419712" lon="10.114273120141162"><ele>182.66666666666666</ele><time>2026-03-26T17:08:04.002Z</time></trkpt><trkpt lat="45.60447935312516" lon="10.114380579646634"><ele>183.0</ele><time>2026-03-26T17:08:07.002Z</time></trkpt><trkpt lat="45.60450957300146" lon="10.114486302947014"><ele>183.33333333333334</ele><time>2026-03-26T17:08:10.002Z</time></trkpt><trkpt lat="45.60456635744955" lon="10.114586284160577"><ele>183.66666666666669</ele><time>2026-03-26T17:08:13.002Z</time></trkpt><trkpt lat="45.60464121527328" lon="10.114649685757804"><ele>184.0</ele><time>2026-03-26T17:08:16.002Z</time></trkpt><trkpt lat="45.6047127562246" lon="10.114705676689786"><ele>184.0</ele><time>2026-03-26T17:08:19.002Z</time></trkpt><trkpt lat="45.60477986086862" lon="10.114778278241875"><ele>184.0</ele><time>2026-03-26T17:08:22.002Z</time></trkpt><trkpt lat="45.60484462999703" lon="10.114848004206248"><ele>184.0</ele><time>2026-03-26T17:08:25.002Z</time></trkpt><trkpt lat="45.604903376890384" lon="10.114923813183566"><ele>184.0</ele><time>2026-03-26T17:08:28.002Z</time></trkpt><trkpt lat="45.60497513518772" lon="10.114993385555696"><ele>184.0</ele><time>2026-03-26T17:08:31.002Z</time></trkpt><trkpt lat="45.60503901303751" lon="10.11506156351799"><ele>184.0</ele><time>2026-03-26T17:08:34.002Z</time></trkpt><trkpt lat="45.60509179385793" lon="10.115158060290772"><ele>184.66666666666669</ele><time>2026-03-26T17:08:37.002Z</time></trkpt><trkpt lat="45.605143600661606" lon="10.11525813434771"><ele>185.33333333333334</ele><time>2026-03-26T17:08:40.002Z</time></trkpt><trkpt lat="45.60519355125704" lon="10.115351454674844"><ele>186.0</ele><time>2026-03-26T17:08:43.003Z</time></trkpt><trkpt lat="45.605233769400115" lon="10.115466210998527"><ele>186.66666666666666</ele><time>2026-03-26T17:08:46.003Z</time></trkpt><trkpt lat="45.60527507623598" lon="10.115569325452642"><ele>187.33333333333331</ele><time>2026-03-26T17:08:49.003Z</time></trkpt><trkpt lat="45.60530384335366" lon="10.11568628234917"><ele>188.0</ele><time>2026-03-26T17:08:52.003Z</time></trkpt><trkpt lat="45.605361476750865" lon="10.115783252303709"><ele>188.0</ele><time>2026-03-26T17:08:55.003Z</time></trkpt><trkpt lat="45.605402517197824" lon="10.11589125109968"><ele>188.0</ele><time>2026-03-26T17:08:58.003Z</time></trkpt><trkpt lat="45.60545533102088" lon="10.11598543919175"><ele>188.0</ele><time>2026-03-26T17:09:01.003Z</time></trkpt><trkpt lat="45.60550627422749" lon="10.116085141032169"><ele>188.0</ele><time>2026-03-26T17:09:04.003Z</time></trkpt><trkpt lat="45.60553973956" lon="10.116186000947328"><ele>188.0</ele><time>2026-03-26T17:09:07.003Z</time></trkpt><trkpt lat="45.605582409738915" lon="10.116285922261259"><ele>188.0</ele><time>2026-03-26T17:09:10.003Z</time></trkpt><trkpt lat="45.60563531510069" lon="10.116382093104493"><ele>188.0</ele><time>2026-03-26T17:09:13.003Z</time></trkpt><trkpt lat="45.605693454515176" lon="10.116478704597611"><ele>188.0</ele><time>2026-03-26T17:09:16.003Z</time></trkpt><trkpt lat="45.60572554606551" lon="10.116595846117166"><ele>188.0</ele><time>2026-03-26T17:09:19.003Z</time></trkpt><trkpt lat="45.60567400991751" lon="10.116704400360774"><ele>188.0</ele><time>2026-03-26T17:09:22.003Z</time></trkpt><trkpt lat="45.605630509645614" lon="10.116789010136573"><ele>188.0</ele><time>2026-03-26T17:09:25.003Z</time></trkpt><trkpt lat="45.605630253950466" lon="10.116904110884041"><ele>188.0</ele><time>2026-03-26T17:09:28.003Z</time></trkpt><trkpt lat="45.60565330152816" lon="10.11702234413711"><ele>188.33333333333331</ele><time>2026-03-26T17:09:31.003Z</time></trkpt><trkpt lat="45.605666069912495" lon="10.117139066145581"><ele>188.66666666666666</ele><time>2026-03-26T17:09:34.003Z</time></trkpt><trkpt lat="45.605681656421424" lon="10.117246859055859"><ele>189.0</ele><time>2026-03-26T17:09:37.003Z</time></trkpt><trkpt lat="45.60574382068114" lon="10.117284328034424"><ele>189.33333333333334</ele><time>2026-03-26T17:09:39.003Z</time></trkpt><trkpt lat="45.60582405557319" lon="10.117351679073636"><ele>189.66666666666669</ele><time>2026-03-26T17:09:42Z</time></trkpt><trkpt lat="45.60584891521776" lon="10.117435571241698"><ele>190.0</ele><time>2026-03-26T17:09:44Z</time></trkpt><trkpt lat="45.60589216830732" lon="10.117542093149149"><ele>190.0</ele><time>2026-03-26T17:09:47Z</time></trkpt><trkpt lat="45.60593744197124" lon="10.117656343278222"><ele>190.0</ele><time>2026-03-26T17:09:50Z</time></trkpt><trkpt lat="45.60599013458948" lon="10.117749972520704"><ele>190.0</ele><time>2026-03-26T17:09:53Z</time></trkpt><trkpt lat="45.606054177338905" lon="10.117836424723851"><ele>190.0</ele><time>2026-03-26T17:09:56Z</time></trkpt><trkpt lat="45.60611111638187" lon="10.117923312520837"><ele>190.0</ele><time>2026-03-26T17:09:59Z</time></trkpt><trkpt lat="45.606167774001044" lon="10.117999651630399"><ele>190.0</ele><time>2026-03-26T17:10:02Z</time></trkpt><trkpt lat="45.60622425788352" lon="10.11808100528188"><ele>189.83333333333334</ele><time>2026-03-26T17:10:05Z</time></trkpt><trkpt lat="45.606282726457025" lon="10.118159622854778"><ele>189.66666666666669</ele><time>2026-03-26T17:10:08Z</time></trkpt><trkpt lat="45.60633536570519" lon="10.11825360883903"><ele>189.5</ele><time>2026-03-26T17:10:11Z</time></trkpt><trkpt lat="45.60639223749377" lon="10.118349783803257"><ele>189.33333333333334</ele><time>2026-03-26T17:10:14Z</time></trkpt><trkpt lat="45.60642500184488" lon="10.118449551787448"><ele>189.16666666666666</ele><time>2026-03-26T17:10:17Z</time></trkpt><trkpt lat="45.6064749333426" lon="10.118506325660235"><ele>189.0</ele><time>2026-03-26T17:10:19Z</time></trkpt><trkpt lat="45.60656020989012" lon="10.118529103376911"><ele>189.66666666666666</ele><time>2026-03-26T17:10:22Z</time></trkpt><trkpt lat="45.60663261937606" lon="10.118585773191953"><ele>190.33333333333331</ele><time>2026-03-26T17:10:25Z</time></trkpt><trkpt lat="45.60671078320464" lon="10.118649420433607"><ele>191.0</ele><time>2026-03-26T17:10:28Z</time></trkpt><trkpt lat="45.606773755524664" lon="10.118726029592205"><ele>191.66666666666666</ele><time>2026-03-26T17:10:31Z</time></trkpt><trkpt lat="45.60683909512248" lon="10.118809715557305"><ele>192.33333333333331</ele><time>2026-03-26T17:10:34Z</time></trkpt><trkpt lat="45.606900087516124" lon="10.118886108992047"><ele>193.0</ele><time>2026-03-26T17:10:37Z</time></trkpt><trkpt lat="45.606963436128616" lon="10.118966441928254"><ele>192.99999999999997</ele><time>2026-03-26T17:10:40Z</time></trkpt><trkpt lat="45.607033526691474" lon="10.119038117473636"><ele>193.0</ele><time>2026-03-26T17:10:43.001Z</time></trkpt><trkpt lat="45.60710816029374" lon="10.11909261465444"><ele>193.0</ele><time>2026-03-26T17:10:46.001Z</time></trkpt><trkpt lat="45.60718818335344" lon="10.119123547217658"><ele>193.0</ele><time>2026-03-26T17:10:49.001Z</time></trkpt><trkpt lat="45.60727430633542" lon="10.119146485157666"><ele>192.99999999999997</ele><time>2026-03-26T17:10:52.001Z</time></trkpt><trkpt lat="45.60735780815773" lon="10.119173142403161"><ele>193.0</ele><time>2026-03-26T17:10:55.001Z</time></trkpt><trkpt lat="45.60744266994954" lon="10.119206279724168"><ele>192.99999999999997</ele><time>2026-03-26T17:10:58.001Z</time></trkpt><trkpt lat="45.60752133315985" lon="10.119231422214376"><ele>193.0</ele><time>2026-03-26T17:11:01.001Z</time></trkpt><trkpt lat="45.60759883210854" lon="10.119274851086885"><ele>193.0</ele><time>2026-03-26T17:11:04.001Z</time></trkpt><trkpt lat="45.60768034345185" lon="10.119321363600948"><ele>193.0</ele><time>2026-03-26T17:11:07.001Z</time></trkpt><trkpt lat="45.60776551486803" lon="10.119360290880522"><ele>192.99999999999997</ele><time>2026-03-26T17:11:10.001Z</time></trkpt><trkpt lat="45.60784792069504" lon="10.119398579136744"><ele>193.0</ele><time>2026-03-26T17:11:13.001Z</time></trkpt><trkpt lat="45.60792863517429" lon="10.11943196514092"><ele>192.66666666666666</ele><time>2026-03-26T17:11:16.001Z</time></trkpt><trkpt lat="45.60798784519462" lon="10.119467439644213"><ele>192.33333333333331</ele><time>2026-03-26T17:11:18.001Z</time></trkpt><trkpt lat="45.608063431551315" lon="10.119530168960283"><ele>192.0</ele><time>2026-03-26T17:11:21.001Z</time></trkpt><trkpt lat="45.60813761005256" lon="10.119591059859507"><ele>191.66666666666666</ele><time>2026-03-26T17:11:24.001Z</time></trkpt><trkpt lat="45.608220632117145" lon="10.119637226013047"><ele>191.33333333333331</ele><time>2026-03-26T17:11:27.001Z</time></trkpt><trkpt lat="45.60829557546255" lon="10.119673598658652"><ele>191.0</ele><time>2026-03-26T17:11:30.001Z</time></trkpt><trkpt lat="45.608377570761895" lon="10.119677418389129"><ele>191.0</ele><time>2026-03-26T17:11:33.001Z</time></trkpt><trkpt lat="45.608413955845585" lon="10.119570358615979"><ele>191.0</ele><time>2026-03-26T17:11:36.001Z</time></trkpt><trkpt lat="45.60841269472872" lon="10.119448302616453"><ele>191.0</ele><time>2026-03-26T17:11:39.001Z</time></trkpt><trkpt lat="45.60835642049907" lon="10.119366280847391"><ele>191.0</ele><time>2026-03-26T17:11:42.001Z</time></trkpt><trkpt lat="45.60829795236951" lon="10.119284136156862"><ele>191.0</ele><time>2026-03-26T17:11:45.001Z</time></trkpt><trkpt lat="45.60828161459539" lon="10.119172031381682"><ele>191.0</ele><time>2026-03-26T17:11:48.001Z</time></trkpt><trkpt lat="45.60825487582075" lon="10.119067113768969"><ele>191.5</ele><time>2026-03-26T17:11:51.001Z</time></trkpt><trkpt lat="45.60831209166257" lon="10.118963001629904"><ele>192.0</ele><time>2026-03-26T17:11:54.001Z</time></trkpt><trkpt lat="45.60839816476965" lon="10.118911236794705"><ele>192.5</ele><time>2026-03-26T17:11:57.001Z</time></trkpt><trkpt lat="45.608460070043286" lon="10.11884308745601"><ele>193.0</ele><time>2026-03-26T17:12:00.001Z</time></trkpt><trkpt lat="45.608491020042514" lon="10.118727207053096"><ele>193.50000000000003</ele><time>2026-03-26T17:12:03.001Z</time></trkpt><trkpt lat="45.60849945692148" lon="10.118637918519648"><ele>194.0</ele><time>2026-03-26T17:12:05.001Z</time></trkpt><trkpt lat="45.60850556983703" lon="10.118517499017452"><ele>194.00000000000003</ele><time>2026-03-26T17:12:08.001Z</time></trkpt><trkpt lat="45.60851517345147" lon="10.11840493759074"><ele>194.0</ele><time>2026-03-26T17:12:11.001Z</time></trkpt><trkpt lat="45.60852432784261" lon="10.118287426015597"><ele>194.0</ele><time>2026-03-26T17:12:14.001Z</time></trkpt><trkpt lat="45.6085434508166" lon="10.11816654174407"><ele>194.0</ele><time>2026-03-26T17:12:17.001Z</time></trkpt><trkpt lat="45.60856762670259" lon="10.118045438891919"><ele>194.00000000000003</ele><time>2026-03-26T17:12:20.001Z</time></trkpt><trkpt lat="45.60859325486108" lon="10.117924231912786"><ele>194.0</ele><time>2026-03-26T17:12:23.001Z</time></trkpt><trkpt lat="45.60860839494635" lon="10.117806168858264"><ele>194.50000000000003</ele><time>2026-03-26T17:12:26.001Z</time></trkpt><trkpt lat="45.608607730343905" lon="10.117694394021614"><ele>195.0</ele><time>2026-03-26T17:12:29.001Z</time></trkpt><trkpt lat="45.60862192068392" lon="10.117587803161557"><ele>195.5</ele><time>2026-03-26T17:12:32.001Z</time></trkpt><trkpt lat="45.60861647524764" lon="10.117479330092948"><ele>196.0</ele><time>2026-03-26T17:12:35.001Z</time></trkpt><trkpt lat="45.60857905740261" lon="10.11740540944837"><ele>196.50000000000003</ele><time>2026-03-26T17:12:37.001Z</time></trkpt><trkpt lat="45.60851671242396" lon="10.117313378581395"><ele>197.0</ele><time>2026-03-26T17:12:40Z</time></trkpt><trkpt lat="45.60845599414494" lon="10.117261086675434"><ele>197.00000000000003</ele><time>2026-03-26T17:12:42Z</time></trkpt><trkpt lat="45.60838563900191" lon="10.117186737869048"><ele>197.0</ele><time>2026-03-26T17:12:45.001Z</time></trkpt><trkpt lat="45.60832127895193" lon="10.117103638362147"><ele>197.0</ele><time>2026-03-26T17:12:48Z</time></trkpt><trkpt lat="45.60824409628999" lon="10.11704105439457"><ele>197.0</ele><time>2026-03-26T17:12:51Z</time></trkpt><trkpt lat="45.60815705309674" lon="10.117020467042229"><ele>197.00000000000003</ele><time>2026-03-26T17:12:54Z</time></trkpt><trkpt lat="45.608089877081184" lon="10.116958545508663"><ele>197.0</ele><time>2026-03-26T17:12:57Z</time></trkpt><trkpt lat="45.60802870777125" lon="10.116914387289482"><ele>197.0</ele><time>2026-03-26T17:12:59Z</time></trkpt><trkpt lat="45.6079607010047" lon="10.116873770304588"><ele>197.0</ele><time>2026-03-26T17:13:02Z</time></trkpt><trkpt lat="45.60789076023462" lon="10.116802213958085"><ele>197.0</ele><time>2026-03-26T17:13:05Z</time></trkpt><trkpt lat="45.60782503567459" lon="10.116755063554455"><ele>197.0</ele><time>2026-03-26T17:13:08Z</time></trkpt><trkpt lat="45.607750635130635" lon="10.116732118450747"><ele>197.0</ele><time>2026-03-26T17:13:11Z</time></trkpt><trkpt lat="45.60768229597952" lon="10.116708616709749"><ele>197.0</ele><time>2026-03-26T17:13:14Z</time></trkpt><trkpt lat="45.607617881059724" lon="10.116684719951945"><ele>197.0</ele><time>2026-03-26T17:13:17Z</time></trkpt><trkpt lat="45.607553659950064" lon="10.11665508228446"><ele>197.16666666666669</ele><time>2026-03-26T17:13:20Z</time></trkpt><trkpt lat="45.60756025051449" lon="10.116531542316007"><ele>197.33333333333334</ele><time>2026-03-26T17:13:23Z</time></trkpt><trkpt lat="45.607624550824255" lon="10.11646034272266"><ele>197.5</ele><time>2026-03-26T17:13:26Z</time></trkpt><trkpt lat="45.60769716332646" lon="10.116416709783289"><ele>197.66666666666669</ele><time>2026-03-26T17:13:29Z</time></trkpt><trkpt lat="45.60776692600868" lon="10.116395400854993"><ele>197.83333333333334</ele><time>2026-03-26T17:13:32Z</time></trkpt><trkpt lat="45.60782424264034" lon="10.116354417995373"><ele>198.0</ele><time>2026-03-26T17:13:35Z</time></trkpt><trkpt lat="45.60788883235492" lon="10.116314405229629"><ele>198.0</ele><time>2026-03-26T17:13:38Z</time></trkpt><trkpt lat="45.60795029151403" lon="10.116282443093569"><ele>198.0</ele><time>2026-03-26T17:13:41Z</time></trkpt><trkpt lat="45.60801294075773" lon="10.116251599693882"><ele>198.0</ele><time>2026-03-26T17:13:44Z</time></trkpt><trkpt lat="45.60806174548453" lon="10.116192448726979"><ele>198.0</ele><time>2026-03-26T17:13:49Z</time></trkpt><trkpt lat="45.60812163928307" lon="10.116138858671928"><ele>198.0</ele><time>2026-03-26T17:13:53Z</time></trkpt><trkpt lat="45.60817334422369" lon="10.116081447029092"><ele>198.0</ele><time>2026-03-26T17:13:57Z</time></trkpt><trkpt lat="45.60823832373849" lon="10.116021873585646"><ele>198.0</ele><time>2026-03-26T17:14:02Z</time></trkpt><trkpt lat="45.608304460303074" lon="10.115988811476367"><ele>198.0</ele><time>2026-03-26T17:14:05Z</time></trkpt><trkpt lat="45.608362203576156" lon="10.115946205364528"><ele>198.0</ele><time>2026-03-26T17:14:08Z</time></trkpt><trkpt lat="45.60843374210609" lon="10.11590230289777"><ele>198.0</ele><time>2026-03-26T17:14:12Z</time></trkpt><trkpt lat="45.60850210978283" lon="10.115852109924163"><ele>198.0</ele><time>2026-03-26T17:14:17Z</time></trkpt><trkpt lat="45.60852943133889" lon="10.115763338682923"><ele>198.0</ele><time>2026-03-26T17:14:21Z</time></trkpt><trkpt lat="45.60850111255765" lon="10.115673045449071"><ele>198.0</ele><time>2026-03-26T17:14:24Z</time></trkpt><trkpt lat="45.60848359883143" lon="10.115561076695267"><ele>198.0</ele><time>2026-03-26T17:14:28Z</time></trkpt><trkpt lat="45.60847453135309" lon="10.115463935606046"><ele>197.85714285714286</ele><time>2026-03-26T17:14:32Z</time></trkpt><trkpt lat="45.60846863069232" lon="10.115367462967205"><ele>197.7142857142857</ele><time>2026-03-26T17:14:36Z</time></trkpt><trkpt lat="45.608446502646395" lon="10.115271670483006"><ele>197.57142857142856</ele><time>2026-03-26T17:14:40Z</time></trkpt><trkpt lat="45.60842300302208" lon="10.115173924624713"><ele>197.42857142857144</ele><time>2026-03-26T17:14:44Z</time></trkpt><trkpt lat="45.60839849809359" lon="10.11508274619243"><ele>197.28571428571428</ele><time>2026-03-26T17:14:48Z</time></trkpt><trkpt lat="45.608376775440334" lon="10.114989305914959"><ele>197.14285714285714</ele><time>2026-03-26T17:14:52Z</time></trkpt><trkpt lat="45.60835463743645" lon="10.114899453765576"><ele>197.0</ele><time>2026-03-26T17:14:56Z</time></trkpt><trkpt lat="45.60832013944972" lon="10.11480980006189"><ele>198.28571428571428</ele><time>2026-03-26T17:15:00Z</time></trkpt><trkpt lat="45.60827101048167" lon="10.114733730621898"><ele>199.57142857142858</ele><time>2026-03-26T17:15:04Z</time></trkpt><trkpt lat="45.60821145923374" lon="10.11466399546028"><ele>200.85714285714283</ele><time>2026-03-26T17:15:08Z</time></trkpt><trkpt lat="45.60816675093417" lon="10.114591033706285"><ele>202.14285714285714</ele><time>2026-03-26T17:15:11Z</time></trkpt><trkpt lat="45.60811924910372" lon="10.114523088209578"><ele>203.42857142857142</ele><time>2026-03-26T17:15:14Z</time></trkpt><trkpt lat="45.60807087857455" lon="10.11446496704301"><ele>204.7142857142857</ele><time>2026-03-26T17:15:16Z</time></trkpt><trkpt lat="45.608014642267364" lon="10.11441332895571"><ele>206.0</ele><time>2026-03-26T17:15:18Z</time></trkpt><trkpt lat="45.607964040743646" lon="10.114358654510461"><ele>206.00000000000003</ele><time>2026-03-26T17:15:20Z</time></trkpt><trkpt lat="45.607922773366" lon="10.114285646404594"><ele>206.0</ele><time>2026-03-26T17:15:22Z</time></trkpt><trkpt lat="45.607865850911836" lon="10.114179516284041"><ele>206.0</ele><time>2026-03-26T17:15:25Z</time></trkpt><trkpt lat="45.607809553438436" lon="10.114075765909295"><ele>206.0</ele><time>2026-03-26T17:15:28Z</time></trkpt><trkpt lat="45.60776263122769" lon="10.114007190252924"><ele>206.00000000000003</ele><time>2026-03-26T17:15:30Z</time></trkpt><trkpt lat="45.607724930938815" lon="10.11393026407471"><ele>206.0</ele><time>2026-03-26T17:15:32Z</time></trkpt><trkpt lat="45.6076697546033" lon="10.113828116536155"><ele>206.00000000000003</ele><time>2026-03-26T17:15:35Z</time></trkpt><trkpt lat="45.60762627431369" lon="10.113755454923773"><ele>206.0</ele><time>2026-03-26T17:15:37Z</time></trkpt><trkpt lat="45.60757408445548" lon="10.11364557016468"><ele>206.0</ele><time>2026-03-26T17:15:40Z</time></trkpt><trkpt lat="45.60752828445716" lon="10.113536332830769"><ele>206.0</ele><time>2026-03-26T17:15:43Z</time></trkpt><trkpt lat="45.60749156650753" lon="10.113415864825445"><ele>206.00000000000003</ele><time>2026-03-26T17:15:46Z</time></trkpt><trkpt lat="45.607470167029994" lon="10.11332834182916"><ele>206.0</ele><time>2026-03-26T17:15:48Z</time></trkpt><trkpt lat="45.607435066093075" lon="10.113202333145509"><ele>206.00000000000003</ele><time>2026-03-26T17:15:51Z</time></trkpt><trkpt lat="45.607402980477325" lon="10.113086604030935"><ele>206.0</ele><time>2026-03-26T17:15:54Z</time></trkpt><trkpt lat="45.607361242517875" lon="10.112986038357858"><ele>206.0</ele><time>2026-03-26T17:15:57Z</time></trkpt><trkpt lat="45.60732005506417" lon="10.112876487616013"><ele>206.0</ele><time>2026-03-26T17:16:00Z</time></trkpt><trkpt lat="45.607281768003126" lon="10.112753749198317"><ele>206.00000000000003</ele><time>2026-03-26T17:16:03Z</time></trkpt><trkpt lat="45.60725407036556" lon="10.112665067182766"><ele>206.0</ele><time>2026-03-26T17:16:05Z</time></trkpt><trkpt lat="45.60723954107751" lon="10.11253031232352"><ele>206.16666666666669</ele><time>2026-03-26T17:16:08Z</time></trkpt><trkpt lat="45.607231435132945" lon="10.112402518413834"><ele>206.33333333333334</ele><time>2026-03-26T17:16:11Z</time></trkpt><trkpt lat="45.60722026571255" lon="10.112277037544121"><ele>206.5</ele><time>2026-03-26T17:16:14Z</time></trkpt><trkpt lat="45.607216484304885" lon="10.112186860516136"><ele>206.66666666666669</ele><time>2026-03-26T17:16:16Z</time></trkpt><trkpt lat="45.60721731797436" lon="10.112096537553057"><ele>206.83333333333334</ele><time>2026-03-26T17:16:18Z</time></trkpt><trkpt lat="45.607195278504044" lon="10.111972432335905"><ele>207.0</ele><time>2026-03-26T17:16:21Z</time></trkpt><trkpt lat="45.60718673545717" lon="10.111846895310702"><ele>207.0</ele><time>2026-03-26T17:16:24Z</time></trkpt><trkpt lat="45.60717771272578" lon="10.111721772310487"><ele>207.0</ele><time>2026-03-26T17:16:27Z</time></trkpt><trkpt lat="45.6071480978369" lon="10.111613736567858"><ele>207.0</ele><time>2026-03-26T17:16:30Z</time></trkpt><trkpt lat="45.60712183034271" lon="10.111494164775602"><ele>207.0</ele><time>2026-03-26T17:16:33Z</time></trkpt><trkpt lat="45.60709489899657" lon="10.111379262342183"><ele>207.0</ele><time>2026-03-26T17:16:36Z</time></trkpt><trkpt lat="45.60706312246718" lon="10.111268595959757"><ele>207.0</ele><time>2026-03-26T17:16:39Z</time></trkpt><trkpt lat="45.60704068724535" lon="10.111143653108961"><ele>206.0</ele><time>2026-03-26T17:16:42Z</time></trkpt><trkpt lat="45.60700488409484" lon="10.111028203321577"><ele>205.0</ele><time>2026-03-26T17:16:45Z</time></trkpt><trkpt lat="45.60696898018076" lon="10.110904672002352"><ele>204.0</ele><time>2026-03-26T17:16:48Z</time></trkpt><trkpt lat="45.60691964635724" lon="10.1108120628491"><ele>203.0</ele><time>2026-03-26T17:16:51Z</time></trkpt><trkpt lat="45.606861480576285" lon="10.110733836624707"><ele>202.0</ele><time>2026-03-26T17:16:54Z</time></trkpt><trkpt lat="45.60680003075373" lon="10.110661287263433"><ele>201.0</ele><time>2026-03-26T17:16:57.001Z</time></trkpt><trkpt lat="45.60673760862331" lon="10.110601122696252"><ele>199.83333333333334</ele><time>2026-03-26T17:17:00Z</time></trkpt><trkpt lat="45.60667922437851" lon="10.110502541296027"><ele>198.66666666666669</ele><time>2026-03-26T17:17:03Z</time></trkpt><trkpt lat="45.60661288756154" lon="10.110461340240583"><ele>197.5</ele><time>2026-03-26T17:17:06Z</time></trkpt><trkpt lat="45.6065392803806" lon="10.110420163278354"><ele>196.33333333333334</ele><time>2026-03-26T17:17:09Z</time></trkpt><trkpt lat="45.606478179161954" lon="10.110378019202715"><ele>195.16666666666669</ele><time>2026-03-26T17:17:12Z</time></trkpt><trkpt lat="45.606409993404306" lon="10.110315171592735"><ele>194.0</ele><time>2026-03-26T17:17:15Z</time></trkpt><trkpt lat="45.606332475192836" lon="10.110263451359625"><ele>194.0</ele><time>2026-03-26T17:17:18Z</time></trkpt><trkpt lat="45.60626188203619" lon="10.11022117467931"><ele>194.0</ele><time>2026-03-26T17:17:21Z</time></trkpt><trkpt lat="45.60621933979995" lon="10.11012977284262"><ele>194.0</ele><time>2026-03-26T17:17:23Z</time></trkpt><trkpt lat="45.606195339488615" lon="10.11003984000963"><ele>194.0</ele><time>2026-03-26T17:17:25Z</time></trkpt><trkpt lat="45.60617716221964" lon="10.10995085463773"><ele>194.0</ele><time>2026-03-26T17:17:27Z</time></trkpt><trkpt lat="45.60615913952199" lon="10.109853491514924"><ele>194.0</ele><time>2026-03-26T17:17:29Z</time></trkpt><trkpt lat="45.606123822390096" lon="10.109733769847107"><ele>194.0</ele><time>2026-03-26T17:17:32Z</time></trkpt><trkpt lat="45.606044853853206" lon="10.10967536245649"><ele>194.33333333333334</ele><time>2026-03-26T17:17:35Z</time></trkpt><trkpt lat="45.60597794026981" lon="10.109644535310553"><ele>194.66666666666669</ele><time>2026-03-26T17:17:38Z</time></trkpt><trkpt lat="45.60591094645995" lon="10.1096170042284"><ele>195.0</ele><time>2026-03-26T17:17:41Z</time></trkpt><trkpt lat="45.60583491638894" lon="10.109600056307938"><ele>195.33333333333331</ele><time>2026-03-26T17:17:44Z</time></trkpt><trkpt lat="45.60576216348417" lon="10.109586972967858"><ele>195.66666666666666</ele><time>2026-03-26T17:17:47Z</time></trkpt><trkpt lat="45.605689363493546" lon="10.10953480387821"><ele>196.0</ele><time>2026-03-26T17:17:50Z</time></trkpt><trkpt lat="45.60560875970019" lon="10.109482024694884"><ele>195.99999999999997</ele><time>2026-03-26T17:17:53Z</time></trkpt><trkpt lat="45.60552319294409" lon="10.109430147669535"><ele>196.0</ele><time>2026-03-26T17:17:56Z</time></trkpt><trkpt lat="45.6054611941945" lon="10.109384797454199"><ele>196.0</ele><time>2026-03-26T17:17:58Z</time></trkpt><trkpt lat="45.60539943774779" lon="10.10930334130845"><ele>196.0</ele><time>2026-03-26T17:18:00Z</time></trkpt><trkpt lat="45.60530974826435" lon="10.109303018106203"><ele>195.99999999999997</ele><time>2026-03-26T17:18:03Z</time></trkpt><trkpt lat="45.60524413379851" lon="10.109331956152236"><ele>196.0</ele><time>2026-03-26T17:18:05Z</time></trkpt><trkpt lat="45.605180444506296" lon="10.109399051214627"><ele>194.66666666666666</ele><time>2026-03-26T17:18:08Z</time></trkpt><trkpt lat="45.605106897039676" lon="10.109465984069942"><ele>193.33333333333331</ele><time>2026-03-26T17:18:11Z</time></trkpt><trkpt lat="45.60503568659486" lon="10.109536027341736"><ele>192.0</ele><time>2026-03-26T17:18:14Z</time></trkpt><trkpt lat="45.60499801142542" lon="10.109628861732954"><ele>190.66666666666666</ele><time>2026-03-26T17:18:17Z</time></trkpt><trkpt lat="45.60496128503111" lon="10.109735052543167"><ele>189.33333333333331</ele><time>2026-03-26T17:18:20Z</time></trkpt><trkpt lat="45.60493542314092" lon="10.109843368783881"><ele>188.0</ele><time>2026-03-26T17:18:23Z</time></trkpt><trkpt lat="45.60490091681223" lon="10.109959578923938"><ele>187.5</ele><time>2026-03-26T17:18:26Z</time></trkpt><trkpt lat="45.60483540464972" lon="10.110047879172615"><ele>187.0</ele><time>2026-03-26T17:18:29Z</time></trkpt><trkpt lat="45.60478648304378" lon="10.110106380496774"><ele>186.5</ele><time>2026-03-26T17:18:31Z</time></trkpt><trkpt lat="45.60472076811216" lon="10.110199340429228"><ele>186.0</ele><time>2026-03-26T17:18:34Z</time></trkpt><trkpt lat="45.60465694902965" lon="10.110279082555182"><ele>185.5</ele><time>2026-03-26T17:18:37Z</time></trkpt><trkpt lat="45.60458862127817" lon="10.110348045361016"><ele>185.0</ele><time>2026-03-26T17:18:40Z</time></trkpt><trkpt lat="45.60454509196626" lon="10.110456725307138"><ele>185.0</ele><time>2026-03-26T17:18:43Z</time></trkpt><trkpt lat="45.60450116338504" lon="10.110565323456917"><ele>185.0</ele><time>2026-03-26T17:18:46Z</time></trkpt><trkpt lat="45.60447387092179" lon="10.110678539528331"><ele>185.0</ele><time>2026-03-26T17:18:49Z</time></trkpt><trkpt lat="45.60444574556083" lon="10.110784411342927"><ele>185.0</ele><time>2026-03-26T17:18:52.001Z</time></trkpt><trkpt lat="45.60442472714581" lon="10.11090180959834"><ele>185.0</ele><time>2026-03-26T17:18:55Z</time></trkpt><trkpt lat="45.60439507334965" lon="10.110985708597289"><ele>185.0</ele><time>2026-03-26T17:18:58Z</time></trkpt><trkpt lat="45.604371794823614" lon="10.111123168814567"><ele>184.83333333333331</ele><time>2026-03-26T17:19:02.001Z</time></trkpt><trkpt lat="45.604352633785695" lon="10.111230452455779"><ele>184.66666666666666</ele><time>2026-03-26T17:19:05Z</time></trkpt><trkpt lat="45.60434356802786" lon="10.111330358346361"><ele>184.5</ele><time>2026-03-26T17:19:08Z</time></trkpt><trkpt lat="45.60431701806472" lon="10.111428680838722"><ele>184.33333333333334</ele><time>2026-03-26T17:19:11Z</time></trkpt><trkpt lat="45.60434537014994" lon="10.111541619468301"><ele>184.16666666666669</ele><time>2026-03-26T17:19:16Z</time></trkpt><trkpt lat="45.60434093384855" lon="10.111668628751458"><ele>184.0</ele><time>2026-03-26T17:19:20Z</time></trkpt><trkpt lat="45.60431795953859" lon="10.111778652453204"><ele>184.0</ele><time>2026-03-26T17:19:22Z</time></trkpt><trkpt lat="45.60429664132813" lon="10.111867664803613"><ele>184.0</ele><time>2026-03-26T17:19:24Z</time></trkpt><trkpt lat="45.60424331994052" lon="10.111967110143508"><ele>184.0</ele><time>2026-03-26T17:19:27Z</time></trkpt><trkpt lat="45.60418317395495" lon="10.112070018814858"><ele>184.0</ele><time>2026-03-26T17:19:30Z</time></trkpt><trkpt lat="45.604098944085045" lon="10.11210464809504"><ele>184.0</ele><time>2026-03-26T17:19:32Z</time></trkpt><trkpt lat="45.60401787422873" lon="10.11216063818855"><ele>184.0</ele><time>2026-03-26T17:19:34Z</time></trkpt><trkpt lat="45.60394370245565" lon="10.112207862713152"><ele>184.0</ele><time>2026-03-26T17:19:37Z</time></trkpt><trkpt lat="45.60387692560251" lon="10.11222434588482"><ele>184.0</ele><time>2026-03-26T17:19:40Z</time></trkpt><trkpt lat="45.60376782129873" lon="10.112258931344789"><ele>184.0</ele><time>2026-03-26T17:19:43Z</time></trkpt><trkpt lat="45.60369774649713" lon="10.112240431182268"><ele>184.0</ele><time>2026-03-26T17:19:45Z</time></trkpt><trkpt lat="45.60362265124204" lon="10.11222221590871"><ele>184.0</ele><time>2026-03-26T17:19:48Z</time></trkpt><trkpt lat="45.60353698625535" lon="10.112207709073507"><ele>184.0</ele><time>2026-03-26T17:19:51Z</time></trkpt><trkpt lat="45.60348007547315" lon="10.112153462358714"><ele>183.33333333333334</ele><time>2026-03-26T17:19:53Z</time></trkpt><trkpt lat="45.603420277890365" lon="10.112091109228842"><ele>182.66666666666669</ele><time>2026-03-26T17:19:56Z</time></trkpt><trkpt lat="45.60334903195643" lon="10.11203721200937"><ele>182.0</ele><time>2026-03-26T17:19:59Z</time></trkpt><trkpt lat="45.60326080769411" lon="10.112022092991205"><ele>181.33333333333334</ele><time>2026-03-26T17:20:02Z</time></trkpt><trkpt lat="45.60318364019938" lon="10.111975435080083"><ele>180.66666666666666</ele><time>2026-03-26T17:20:05Z</time></trkpt><trkpt lat="45.603108396901256" lon="10.11190534051492"><ele>180.0</ele><time>2026-03-26T17:20:08Z</time></trkpt><trkpt lat="45.60302847370907" lon="10.111827585989218"><ele>180.0</ele><time>2026-03-26T17:20:11Z</time></trkpt><trkpt lat="45.60294721118139" lon="10.111780394523743"><ele>180.0</ele><time>2026-03-26T17:20:14Z</time></trkpt><trkpt lat="45.60287117683678" lon="10.111728138867969"><ele>180.0</ele><time>2026-03-26T17:20:17Z</time></trkpt><trkpt lat="45.60279841805158" lon="10.111678039837189"><ele>180.0</ele><time>2026-03-26T17:20:20Z</time></trkpt><trkpt lat="45.60272359451655" lon="10.11163521157062"><ele>180.0</ele><time>2026-03-26T17:20:23Z</time></trkpt><trkpt lat="45.6026468811864" lon="10.111568924332648"><ele>180.0</ele><time>2026-03-26T17:20:26Z</time></trkpt><trkpt lat="45.60257016607859" lon="10.111511860577682"><ele>180.16666666666666</ele><time>2026-03-26T17:20:29Z</time></trkpt><trkpt lat="45.6025081220005" lon="10.111471391654367"><ele>180.33333333333334</ele><time>2026-03-26T17:20:32Z</time></trkpt><trkpt lat="45.602428017797976" lon="10.1114233356526"><ele>180.5</ele><time>2026-03-26T17:20:35Z</time></trkpt><trkpt lat="45.602353688297235" lon="10.111358322932034"><ele>180.66666666666669</ele><time>2026-03-26T17:20:38Z</time></trkpt><trkpt lat="45.60227097666618" lon="10.111304513625262"><ele>180.83333333333334</ele><time>2026-03-26T17:20:41Z</time></trkpt><trkpt lat="45.602190735386564" lon="10.111260816530358"><ele>181.0</ele><time>2026-03-26T17:20:44Z</time></trkpt><trkpt lat="45.60211675017901" lon="10.111203430887503"><ele>181.0</ele><time>2026-03-26T17:20:47Z</time></trkpt><trkpt lat="45.602040504540135" lon="10.111133947529417"><ele>181.0</ele><time>2026-03-26T17:20:50.001Z</time></trkpt><trkpt lat="45.60196748443628" lon="10.11106550420413"><ele>181.0</ele><time>2026-03-26T17:20:53.001Z</time></trkpt><trkpt lat="45.60189297636718" lon="10.111019397913543"><ele>181.0</ele><time>2026-03-26T17:20:56.001Z</time></trkpt><trkpt lat="45.60182101673265" lon="10.11094592048843"><ele>181.0</ele><time>2026-03-26T17:20:59Z</time></trkpt><trkpt lat="45.601749188132736" lon="10.110893327289252"><ele>181.0</ele><time>2026-03-26T17:21:02.001Z</time></trkpt><trkpt lat="45.60166461402308" lon="10.110840309625285"><ele>181.0</ele><time>2026-03-26T17:21:05.001Z</time></trkpt><trkpt lat="45.60158402741688" lon="10.110775646129513"><ele>181.0</ele><time>2026-03-26T17:21:08.001Z</time></trkpt><trkpt lat="45.60150561388847" lon="10.110714719146634"><ele>181.0</ele><time>2026-03-26T17:21:11.001Z</time></trkpt><trkpt lat="45.60142832311434" lon="10.110658765756233"><ele>181.0</ele><time>2026-03-26T17:21:14.001Z</time></trkpt><trkpt lat="45.60135173618257" lon="10.110606430362598"><ele>181.0</ele><time>2026-03-26T17:21:17.001Z</time></trkpt><trkpt lat="45.60127747246956" lon="10.110552782472338"><ele>181.0</ele><time>2026-03-26T17:21:20.001Z</time></trkpt><trkpt lat="45.601206199750095" lon="10.110505977127108"><ele>180.33333333333334</ele><time>2026-03-26T17:21:23.001Z</time></trkpt><trkpt lat="45.60112622536991" lon="10.110463053492994"><ele>179.66666666666669</ele><time>2026-03-26T17:21:26.001Z</time></trkpt><trkpt lat="45.60104693282645" lon="10.11043404520258"><ele>179.0</ele><time>2026-03-26T17:21:29.001Z</time></trkpt><trkpt lat="45.600970186454205" lon="10.110397892787416"><ele>178.33333333333334</ele><time>2026-03-26T17:21:32.001Z</time></trkpt><trkpt lat="45.60094259051237" lon="10.11028507293184"><ele>177.66666666666666</ele><time>2026-03-26T17:21:35.001Z</time></trkpt><trkpt lat="45.60095797849889" lon="10.110196006773387"><ele>177.0</ele><time>2026-03-26T17:21:37.001Z</time></trkpt><trkpt lat="45.600980875936045" lon="10.110089609488815"><ele>177.0</ele><time>2026-03-26T17:21:40.001Z</time></trkpt><trkpt lat="45.60098570680305" lon="10.109960320941434"><ele>177.0</ele><time>2026-03-26T17:21:43.001Z</time></trkpt><trkpt lat="45.601005881506" lon="10.109839115511628"><ele>177.0</ele><time>2026-03-26T17:21:46.001Z</time></trkpt><trkpt lat="45.60101565128373" lon="10.109720086325872"><ele>177.0</ele><time>2026-03-26T17:21:49.001Z</time></trkpt><trkpt lat="45.6010340438835" lon="10.109593233122967"><ele>177.0</ele><time>2026-03-26T17:21:52.001Z</time></trkpt><trkpt lat="45.60105510651487" lon="10.109485370178188"><ele>177.0</ele><time>2026-03-26T17:21:55.001Z</time></trkpt><trkpt lat="45.60107485975439" lon="10.10937107437856"><ele>176.83333333333334</ele><time>2026-03-26T17:21:58.001Z</time></trkpt><trkpt lat="45.60110263380709" lon="10.109246898222672"><ele>176.66666666666666</ele><time>2026-03-26T17:22:01.001Z</time></trkpt><trkpt lat="45.6011188021697" lon="10.109129141810337"><ele>176.5</ele><time>2026-03-26T17:22:04.001Z</time></trkpt><trkpt lat="45.6011246156369" lon="10.109037066156587"><ele>176.33333333333331</ele><time>2026-03-26T17:22:06.001Z</time></trkpt><trkpt lat="45.60115663483208" lon="10.108926537826225"><ele>176.16666666666666</ele><time>2026-03-26T17:22:09.001Z</time></trkpt><trkpt lat="45.60117563971641" lon="10.10880837153935"><ele>176.0</ele><time>2026-03-26T17:22:12.001Z</time></trkpt><trkpt lat="45.60120091701041" lon="10.108685807442507"><ele>176.0</ele><time>2026-03-26T17:22:15.001Z</time></trkpt><trkpt lat="45.60122585794524" lon="10.108562892575815"><ele>176.0</ele><time>2026-03-26T17:22:18.001Z</time></trkpt><trkpt lat="45.601239452115166" lon="10.108445743410336"><ele>176.0</ele><time>2026-03-26T17:22:21.001Z</time></trkpt><trkpt lat="45.60120415653329" lon="10.108343683357127"><ele>176.0</ele><time>2026-03-26T17:22:24.001Z</time></trkpt><trkpt lat="45.60112347027473" lon="10.108291810900797"><ele>176.0</ele><time>2026-03-26T17:22:27.001Z</time></trkpt><trkpt lat="45.60105115101535" lon="10.108242984824905"><ele>176.0</ele><time>2026-03-26T17:22:30.001Z</time></trkpt><trkpt lat="45.60097061746737" lon="10.10819515962774"><ele>176.5</ele><time>2026-03-26T17:22:33.001Z</time></trkpt><trkpt lat="45.60089674325434" lon="10.108161239904517"><ele>177.0</ele><time>2026-03-26T17:22:36.001Z</time></trkpt><trkpt lat="45.600809616934065" lon="10.108129448937907"><ele>177.5</ele><time>2026-03-26T17:22:39.001Z</time></trkpt><trkpt lat="45.600727517531375" lon="10.108116798046078"><ele>178.0</ele><time>2026-03-26T17:22:42.001Z</time></trkpt><trkpt lat="45.60064879554976" lon="10.108071542350006"><ele>178.5</ele><time>2026-03-26T17:22:45.001Z</time></trkpt><trkpt lat="45.60057820389978" lon="10.108027829980418"><ele>179.0</ele><time>2026-03-26T17:22:48.001Z</time></trkpt><trkpt lat="45.600509785195264" lon="10.107952144707399"><ele>179.0</ele><time>2026-03-26T17:22:51.001Z</time></trkpt><trkpt lat="45.600433600120695" lon="10.107897790564142"><ele>179.0</ele><time>2026-03-26T17:22:54.001Z</time></trkpt><trkpt lat="45.60037092532113" lon="10.107839561081189"><ele>179.0</ele><time>2026-03-26T17:22:57.001Z</time></trkpt><trkpt lat="45.600292788066184" lon="10.107806930274766"><ele>179.0</ele><time>2026-03-26T17:23:00.001Z</time></trkpt><trkpt lat="45.60022459699382" lon="10.107731613055092"><ele>179.0</ele><time>2026-03-26T17:23:03.001Z</time></trkpt><trkpt lat="45.60015140606194" lon="10.107670394186188"><ele>179.0</ele><time>2026-03-26T17:23:06.001Z</time></trkpt><trkpt lat="45.600087709048566" lon="10.10758701071828"><ele>178.83333333333331</ele><time>2026-03-26T17:23:09.001Z</time></trkpt><trkpt lat="45.60002483555866" lon="10.10749543210058"><ele>178.66666666666666</ele><time>2026-03-26T17:23:12Z</time></trkpt><trkpt lat="45.59994998188446" lon="10.107491638561935"><ele>178.5</ele><time>2026-03-26T17:23:14.001Z</time></trkpt><trkpt lat="45.599886228430144" lon="10.10747481459841"><ele>178.33333333333334</ele><time>2026-03-26T17:23:16Z</time></trkpt><trkpt lat="45.5998022920824" lon="10.107420822339927"><ele>178.16666666666669</ele><time>2026-03-26T17:23:19.001Z</time></trkpt><trkpt lat="45.59971627148008" lon="10.107377138163143"><ele>178.0</ele><time>2026-03-26T17:23:22.001Z</time></trkpt><trkpt lat="45.59964306784003" lon="10.107297782006393"><ele>178.0</ele><time>2026-03-26T17:23:25.001Z</time></trkpt><trkpt lat="45.59956662136902" lon="10.107235576650268"><ele>178.0</ele><time>2026-03-26T17:23:28.001Z</time></trkpt><trkpt lat="45.59949333310238" lon="10.10716694235445"><ele>178.0</ele><time>2026-03-26T17:23:31.001Z</time></trkpt><trkpt lat="45.599430435760986" lon="10.107092838084165"><ele>178.0</ele><time>2026-03-26T17:23:34.001Z</time></trkpt><trkpt lat="45.59937036334113" lon="10.107010115732724"><ele>178.0</ele><time>2026-03-26T17:23:37.001Z</time></trkpt><trkpt lat="45.599315254808815" lon="10.10696115282996"><ele>178.0</ele><time>2026-03-26T17:23:39.001Z</time></trkpt><trkpt lat="45.599250997310065" lon="10.106942107044988"><ele>178.0</ele><time>2026-03-26T17:23:41.001Z</time></trkpt><trkpt lat="45.59917754238912" lon="10.106895121592999"><ele>178.0</ele><time>2026-03-26T17:23:44.001Z</time></trkpt><trkpt lat="45.599102234082686" lon="10.106831022216369"><ele>178.0</ele><time>2026-03-26T17:23:47.001Z</time></trkpt><trkpt lat="45.59903815080041" lon="10.106748218762434"><ele>178.0</ele><time>2026-03-26T17:23:50.001Z</time></trkpt><trkpt lat="45.59897018882078" lon="10.106675803864125"><ele>178.0</ele><time>2026-03-26T17:23:53.001Z</time></trkpt><trkpt lat="45.598882649575344" lon="10.106639068556007"><ele>178.0</ele><time>2026-03-26T17:23:56.001Z</time></trkpt><trkpt lat="45.59879937997361" lon="10.10661942561779"><ele>178.0</ele><time>2026-03-26T17:23:59.001Z</time></trkpt><trkpt lat="45.59871681921619" lon="10.106578427080251"><ele>178.0</ele><time>2026-03-26T17:24:02.001Z</time></trkpt><trkpt lat="45.59864410745853" lon="10.106507527454015"><ele>178.0</ele><time>2026-03-26T17:24:05.001Z</time></trkpt><trkpt lat="45.59860287445036" lon="10.106430164429279"><ele>178.0</ele><time>2026-03-26T17:24:07.001Z</time></trkpt><trkpt lat="45.59853874942554" lon="10.106362976810658"><ele>178.0</ele><time>2026-03-26T17:24:10.001Z</time></trkpt><trkpt lat="45.59845867950467" lon="10.106318508986742"><ele>178.0</ele><time>2026-03-26T17:24:13.001Z</time></trkpt><trkpt lat="45.59838366908746" lon="10.10629694478624"><ele>178.14285714285714</ele><time>2026-03-26T17:24:16.001Z</time></trkpt><trkpt lat="45.59831847815468" lon="10.106294144629228"><ele>178.28571428571428</ele><time>2026-03-26T17:24:18.001Z</time></trkpt><trkpt lat="45.598228163288" lon="10.106280942635557"><ele>178.42857142857144</ele><time>2026-03-26T17:24:21.001Z</time></trkpt><trkpt lat="45.59815471439794" lon="10.106279696287524"><ele>178.57142857142856</ele><time>2026-03-26T17:24:23.001Z</time></trkpt><trkpt lat="45.59808452412686" lon="10.106268104416122"><ele>178.71428571428572</ele><time>2026-03-26T17:24:25.001Z</time></trkpt><trkpt lat="45.5980244396243" lon="10.106235726329862"><ele>178.85714285714286</ele><time>2026-03-26T17:24:27.001Z</time></trkpt><trkpt lat="45.59794186013423" lon="10.10621487212703"><ele>179.0</ele><time>2026-03-26T17:24:30.001Z</time></trkpt><trkpt lat="45.59790821075862" lon="10.106333247208564"><ele>179.0</ele><time>2026-03-26T17:24:33.001Z</time></trkpt><trkpt lat="45.59787789441233" lon="10.106442477598687"><ele>179.0</ele><time>2026-03-26T17:24:36.001Z</time></trkpt><trkpt lat="45.59784521084329" lon="10.106557489257119"><ele>179.0</ele><time>2026-03-26T17:24:39.001Z</time></trkpt><trkpt lat="45.597815838071995" lon="10.106668141011031"><ele>179.0</ele><time>2026-03-26T17:24:42.001Z</time></trkpt><trkpt lat="45.59777823710711" lon="10.106768960018425"><ele>179.0</ele><time>2026-03-26T17:24:45.001Z</time></trkpt><trkpt lat="45.59775252745287" lon="10.106876805971439"><ele>179.0</ele><time>2026-03-26T17:24:48.001Z</time></trkpt><trkpt lat="45.59772385895965" lon="10.106974243171683"><ele>178.42857142857144</ele><time>2026-03-26T17:24:51.001Z</time></trkpt><trkpt lat="45.59769267920225" lon="10.10706805871071"><ele>177.85714285714286</ele><time>2026-03-26T17:24:54.001Z</time></trkpt><trkpt lat="45.59766795574943" lon="10.107164570246164"><ele>177.28571428571428</ele><time>2026-03-26T17:24:57.001Z</time></trkpt><trkpt lat="45.597651093825704" lon="10.107252926040758"><ele>176.71428571428572</ele><time>2026-03-26T17:25:00.001Z</time></trkpt><trkpt lat="45.597618931583604" lon="10.107363579108902"><ele>176.14285714285714</ele><time>2026-03-26T17:25:04.001Z</time></trkpt><trkpt lat="45.597572111120904" lon="10.107434457222844"><ele>175.57142857142858</ele><time>2026-03-26T17:25:07.001Z</time></trkpt><trkpt lat="45.597540072239184" lon="10.107543464246111"><ele>175.0</ele><time>2026-03-26T17:25:11Z</time></trkpt><trkpt lat="45.59752089450704" lon="10.107632210941953"><ele>175.0</ele><time>2026-03-26T17:25:14.001Z</time></trkpt><trkpt lat="45.597494893982976" lon="10.10773173179816"><ele>175.0</ele><time>2026-03-26T17:25:17.001Z</time></trkpt><trkpt lat="45.597460515341794" lon="10.107833861615507"><ele>175.0</ele><time>2026-03-26T17:25:20.001Z</time></trkpt><trkpt lat="45.59744469268383" lon="10.107922671082607"><ele>175.0</ele><time>2026-03-26T17:25:23.001Z</time></trkpt><trkpt lat="45.59742167133532" lon="10.10801649727724"><ele>175.0</ele><time>2026-03-26T17:25:26.001Z</time></trkpt><trkpt lat="45.59740111581563" lon="10.108124644709635"><ele>175.0</ele><time>2026-03-26T17:25:30.001Z</time></trkpt><trkpt lat="45.59739732978068" lon="10.108216099494669"><ele>175.0</ele><time>2026-03-26T17:25:33.001Z</time></trkpt><trkpt lat="45.597377897852915" lon="10.108301831333696"><ele>175.0</ele><time>2026-03-26T17:25:36.001Z</time></trkpt><trkpt lat="45.597351375647044" lon="10.108416119702996"><ele>175.0</ele><time>2026-03-26T17:25:40.001Z</time></trkpt><trkpt lat="45.59732523131363" lon="10.108509618241127"><ele>175.0</ele><time>2026-03-26T17:25:43.001Z</time></trkpt><trkpt lat="45.5973326268151" lon="10.10862826822329"><ele>175.0</ele><time>2026-03-26T17:25:47.001Z</time></trkpt><trkpt lat="45.597361930225404" lon="10.108721412931898"><ele>175.0</ele><time>2026-03-26T17:25:50.001Z</time></trkpt><trkpt lat="45.597404024847954" lon="10.108804997698385"><ele>175.0</ele><time>2026-03-26T17:25:53.001Z</time></trkpt><trkpt lat="45.59746033078443" lon="10.108855284283662"><ele>175.0</ele><time>2026-03-26T17:25:56.001Z</time></trkpt><trkpt lat="45.5975144390435" lon="10.108909274725791"><ele>175.0</ele><time>2026-03-26T17:25:59.001Z</time></trkpt><trkpt lat="45.597580305754654" lon="10.108972706830084"><ele>175.0</ele><time>2026-03-26T17:26:03.001Z</time></trkpt><trkpt lat="45.59754002172698" lon="10.109068315860153"><ele>175.0</ele><time>2026-03-26T17:26:06.001Z</time></trkpt><trkpt lat="45.59746306237959" lon="10.10910296180115"><ele>175.0</ele><time>2026-03-26T17:26:09.001Z</time></trkpt><trkpt lat="45.59742555649862" lon="10.109208715892821"><ele>175.0</ele><time>2026-03-26T17:26:13.001Z</time></trkpt><trkpt lat="45.59743447346224" lon="10.109309611700699"><ele>175.0</ele><time>2026-03-26T17:26:16.001Z</time></trkpt><trkpt lat="45.59743932479086" lon="10.109410935102998"><ele>175.14285714285714</ele><time>2026-03-26T17:26:19.001Z</time></trkpt><trkpt lat="45.5974579735984" lon="10.109515738578091"><ele>175.28571428571428</ele><time>2026-03-26T17:26:22.001Z</time></trkpt><trkpt lat="45.59748482299684" lon="10.10960874028185"><ele>175.42857142857144</ele><time>2026-03-26T17:26:26.001Z</time></trkpt><trkpt lat="45.59751259581859" lon="10.109690618889557"><ele>175.57142857142856</ele><time>2026-03-26T17:26:29.001Z</time></trkpt><trkpt lat="45.597531297128675" lon="10.109788204606854"><ele>175.71428571428572</ele><time>2026-03-26T17:26:32.001Z</time></trkpt><trkpt lat="45.59752370917081" lon="10.1099090902949"><ele>175.85714285714286</ele><time>2026-03-26T17:26:36.001Z</time></trkpt><trkpt lat="45.59752501744366" lon="10.110016046158325"><ele>176.0</ele><time>2026-03-26T17:26:39.001Z</time></trkpt><trkpt lat="45.597528894578" lon="10.110124053375271"><ele>176.0</ele><time>2026-03-26T17:26:42.001Z</time></trkpt><trkpt lat="45.5975332919554" lon="10.110235904312407"><ele>176.0</ele><time>2026-03-26T17:26:45.001Z</time></trkpt><trkpt lat="45.59755476819057" lon="10.110333481478605"><ele>176.0</ele><time>2026-03-26T17:26:48.001Z</time></trkpt><trkpt lat="45.5975621640127" lon="10.110433402514605"><ele>176.0</ele><time>2026-03-26T17:26:51.001Z</time></trkpt><trkpt lat="45.59758646355134" lon="10.110531737037684"><ele>176.0</ele><time>2026-03-26T17:26:54.001Z</time></trkpt><trkpt lat="45.59759542434167" lon="10.110645890845406"><ele>176.0</ele><time>2026-03-26T17:26:57.001Z</time></trkpt><trkpt lat="45.59760135150448" lon="10.110745797743832"><ele>176.0</ele><time>2026-03-26T17:27:00.001Z</time></trkpt><trkpt lat="45.59760327075616" lon="10.110855505077813"><ele>176.16666666666666</ele><time>2026-03-26T17:27:03.001Z</time></trkpt><trkpt lat="45.59759034401004" lon="10.110952904831926"><ele>176.33333333333331</ele><time>2026-03-26T17:27:06.001Z</time></trkpt><trkpt lat="45.59753871742206" lon="10.111060649200317"><ele>176.5</ele><time>2026-03-26T17:27:09.001Z</time></trkpt><trkpt lat="45.597471048967115" lon="10.111149144125177"><ele>176.66666666666666</ele><time>2026-03-26T17:27:12.001Z</time></trkpt><trkpt lat="45.59744399143003" lon="10.111256379606353"><ele>176.83333333333334</ele><time>2026-03-26T17:27:15.001Z</time></trkpt><trkpt lat="45.597411267060984" lon="10.111367834590322"><ele>177.0</ele><time>2026-03-26T17:27:18.001Z</time></trkpt><trkpt lat="45.59734151045636" lon="10.111413403041299"><ele>177.0</ele><time>2026-03-26T17:27:20.001Z</time></trkpt><trkpt lat="45.597285327131075" lon="10.111507789520847"><ele>177.0</ele><time>2026-03-26T17:27:23Z</time></trkpt><trkpt lat="45.59725406951745" lon="10.111617698870994"><ele>177.0</ele><time>2026-03-26T17:27:26Z</time></trkpt><trkpt lat="45.59723133187257" lon="10.111726021331897"><ele>177.0</ele><time>2026-03-26T17:27:29Z</time></trkpt><trkpt lat="45.597199563408566" lon="10.111811779538307"><ele>177.0</ele><time>2026-03-26T17:27:32Z</time></trkpt><trkpt lat="45.59715897085968" lon="10.111907883398404"><ele>177.0</ele><time>2026-03-26T17:27:35Z</time></trkpt><trkpt lat="45.59709364750833" lon="10.111994290418357"><ele>176.66666666666666</ele><time>2026-03-26T17:27:38Z</time></trkpt><trkpt lat="45.597034654552935" lon="10.112079020787153"><ele>176.33333333333334</ele><time>2026-03-26T17:27:41Z</time></trkpt><trkpt lat="45.596974557683424" lon="10.112162212413969"><ele>176.0</ele><time>2026-03-26T17:27:44Z</time></trkpt><trkpt lat="45.596928806812976" lon="10.112265587416916"><ele>175.66666666666669</ele><time>2026-03-26T17:27:47Z</time></trkpt><trkpt lat="45.59690757127941" lon="10.112385188293258"><ele>175.33333333333334</ele><time>2026-03-26T17:27:50Z</time></trkpt><trkpt lat="45.596898901012125" lon="10.112492958057379"><ele>175.0</ele><time>2026-03-26T17:27:53Z</time></trkpt><trkpt lat="45.59687987749369" lon="10.112595373399422"><ele>174.66666666666669</ele><time>2026-03-26T17:27:56Z</time></trkpt><trkpt lat="45.596855513146785" lon="10.112692899926575"><ele>174.33333333333334</ele><time>2026-03-26T17:27:59Z</time></trkpt><trkpt lat="45.596843870997404" lon="10.112802777493906"><ele>174.0</ele><time>2026-03-26T17:28:02Z</time></trkpt><trkpt lat="45.596834044450596" lon="10.112902890935981"><ele>173.66666666666666</ele><time>2026-03-26T17:28:05Z</time></trkpt><trkpt lat="45.59682768631159" lon="10.113014409409189"><ele>173.33333333333331</ele><time>2026-03-26T17:28:08Z</time></trkpt><trkpt lat="45.59681449477279" lon="10.113136240197392"><ele>173.0</ele><time>2026-03-26T17:28:11Z</time></trkpt><trkpt lat="45.596800034457964" lon="10.113245262858921"><ele>173.0</ele><time>2026-03-26T17:28:14Z</time></trkpt><trkpt lat="45.59678741714573" lon="10.113338549968775"><ele>173.0</ele><time>2026-03-26T17:28:17Z</time></trkpt><trkpt lat="45.59678072477983" lon="10.113445329703168"><ele>173.0</ele><time>2026-03-26T17:28:20Z</time></trkpt><trkpt lat="45.59677355277339" lon="10.113551219766999"><ele>173.0</ele><time>2026-03-26T17:28:23Z</time></trkpt><trkpt lat="45.596764436852865" lon="10.113648628950006"><ele>173.0</ele><time>2026-03-26T17:28:26Z</time></trkpt><trkpt lat="45.59677181434487" lon="10.113740548523436"><ele>173.0</ele><time>2026-03-26T17:28:29Z</time></trkpt><trkpt lat="45.596778452530415" lon="10.11383287347762"><ele>173.0</ele><time>2026-03-26T17:28:32Z</time></trkpt><trkpt lat="45.59680068559357" lon="10.113928755558856"><ele>173.0</ele><time>2026-03-26T17:28:35Z</time></trkpt><trkpt lat="45.59681258654894" lon="10.11402460460503"><ele>173.0</ele><time>2026-03-26T17:28:38Z</time></trkpt><trkpt lat="45.59682509808312" lon="10.1141343841922"><ele>173.0</ele><time>2026-03-26T17:28:41Z</time></trkpt><trkpt lat="45.596832520734694" lon="10.114235463364313"><ele>173.0</ele><time>2026-03-26T17:28:44Z</time></trkpt><trkpt lat="45.596844267499776" lon="10.114334587983313"><ele>173.0</ele><time>2026-03-26T17:28:47Z</time></trkpt><trkpt lat="45.59685170959949" lon="10.114436470361538"><ele>173.0</ele><time>2026-03-26T17:28:50Z</time></trkpt><trkpt lat="45.59686310464865" lon="10.114532940856595"><ele>173.0</ele><time>2026-03-26T17:28:53Z</time></trkpt><trkpt lat="45.596878428331735" lon="10.114628825791533"><ele>172.85714285714286</ele><time>2026-03-26T17:28:55.999Z</time></trkpt><trkpt lat="45.59689137296462" lon="10.11472552040192"><ele>172.71428571428572</ele><time>2026-03-26T17:28:58.997Z</time></trkpt><trkpt lat="45.59690659155583" lon="10.114824185593198"><ele>172.57142857142858</ele><time>2026-03-26T17:29:01.995Z</time></trkpt><trkpt lat="45.59691609295629" lon="10.114924586863307"><ele>172.42857142857144</ele><time>2026-03-26T17:29:04.994Z</time></trkpt><trkpt lat="45.59693505730795" lon="10.115014267914653"><ele>172.28571428571428</ele><time>2026-03-26T17:29:07.993Z</time></trkpt><trkpt lat="45.596948202050484" lon="10.115107737144701"><ele>172.14285714285717</ele><time>2026-03-26T17:29:10.992Z</time></trkpt><trkpt lat="45.59698659979638" lon="10.115212362849812"><ele>172.0</ele><time>2026-03-26T17:29:14.991Z</time></trkpt><trkpt lat="45.59699382526979" lon="10.1153114725631"><ele>172.0</ele><time>2026-03-26T17:29:17.99Z</time></trkpt><trkpt lat="45.597006049714096" lon="10.115410214429998"><ele>172.0</ele><time>2026-03-26T17:29:20.99Z</time></trkpt><trkpt lat="45.59701292915244" lon="10.11552208342538"><ele>172.0</ele><time>2026-03-26T17:29:23.989Z</time></trkpt><trkpt lat="45.59701409412619" lon="10.115646848582744"><ele>172.0</ele><time>2026-03-26T17:29:26.99Z</time></trkpt><trkpt lat="45.59702153152553" lon="10.11576567517847"><ele>172.0</ele><time>2026-03-26T17:29:29.989Z</time></trkpt><trkpt lat="45.59704512239427" lon="10.115871525714246"><ele>172.0</ele><time>2026-03-26T17:29:32.989Z</time></trkpt><trkpt lat="45.597070903933954" lon="10.115959103114703"><ele>172.00000000000003</ele><time>2026-03-26T17:29:35.989Z</time></trkpt><trkpt lat="45.597079997518165" lon="10.11607192169377"><ele>172.0</ele><time>2026-03-26T17:29:38.989Z</time></trkpt><trkpt lat="45.597086121924114" lon="10.116173234697122"><ele>172.0</ele><time>2026-03-26T17:29:41.988Z</time></trkpt><trkpt lat="45.59709108117693" lon="10.116281625638916"><ele>172.0</ele><time>2026-03-26T17:29:44.988Z</time></trkpt><trkpt lat="45.597104606382025" lon="10.116381292394678"><ele>172.0</ele><time>2026-03-26T17:29:47.988Z</time></trkpt><trkpt lat="45.597114527482724" lon="10.116481339644569"><ele>172.00000000000003</ele><time>2026-03-26T17:29:50.988Z</time></trkpt><trkpt lat="45.59712625702566" lon="10.116574848597308"><ele>172.0</ele><time>2026-03-26T17:29:53.988Z</time></trkpt><trkpt lat="45.597131488471234" lon="10.116688043734518"><ele>171.83333333333334</ele><time>2026-03-26T17:29:57.988Z</time></trkpt><trkpt lat="45.59711922432371" lon="10.116809227222607"><ele>171.66666666666669</ele><time>2026-03-26T17:30:00.988Z</time></trkpt><trkpt lat="45.59711135719262" lon="10.116907207218539"><ele>171.5</ele><time>2026-03-26T17:30:03.988Z</time></trkpt><trkpt lat="45.59711974651008" lon="10.11701159476347"><ele>171.33333333333334</ele><time>2026-03-26T17:30:06.988Z</time></trkpt><trkpt lat="45.597110043838605" lon="10.11712350073106"><ele>171.16666666666666</ele><time>2026-03-26T17:30:09.988Z</time></trkpt><trkpt lat="45.59710845392563" lon="10.117237821468018"><ele>171.0</ele><time>2026-03-26T17:30:12.988Z</time></trkpt><trkpt lat="45.59709779281846" lon="10.117348405319468"><ele>170.83333333333334</ele><time>2026-03-26T17:30:15.988Z</time></trkpt><trkpt lat="45.59710021260656" lon="10.11745345578747"><ele>170.66666666666666</ele><time>2026-03-26T17:30:18.988Z</time></trkpt><trkpt lat="45.597093031308056" lon="10.11755381482716"><ele>170.5</ele><time>2026-03-26T17:30:21.988Z</time></trkpt><trkpt lat="45.597091190055565" lon="10.117650237008792"><ele>170.33333333333331</ele><time>2026-03-26T17:30:24.988Z</time></trkpt><trkpt lat="45.59710220138769" lon="10.117769361473025"><ele>170.16666666666666</ele><time>2026-03-26T17:30:28.988Z</time></trkpt><trkpt lat="45.597097246341335" lon="10.117880528398596"><ele>170.0</ele><time>2026-03-26T17:30:31.988Z</time></trkpt><trkpt lat="45.59707925698579" lon="10.117985951643218"><ele>170.0</ele><time>2026-03-26T17:30:34.988Z</time></trkpt><trkpt lat="45.59706818093188" lon="10.1180957347465"><ele>170.0</ele><time>2026-03-26T17:30:37.988Z</time></trkpt><trkpt lat="45.59705142682302" lon="10.118205763532345"><ele>170.0</ele><time>2026-03-26T17:30:40.988Z</time></trkpt><trkpt lat="45.597055185539475" lon="10.118312935363841"><ele>170.0</ele><time>2026-03-26T17:30:43.988Z</time></trkpt><trkpt lat="45.597039304344435" lon="10.118426925237308"><ele>170.0</ele><time>2026-03-26T17:30:46.988Z</time></trkpt><trkpt lat="45.59703070251227" lon="10.11853176916403"><ele>170.0</ele><time>2026-03-26T17:30:49.988Z</time></trkpt><trkpt lat="45.597026786960654" lon="10.118630643416997"><ele>169.85714285714286</ele><time>2026-03-26T17:30:52.988Z</time></trkpt><trkpt lat="45.59702747735146" lon="10.118725938003509"><ele>169.7142857142857</ele><time>2026-03-26T17:30:55.988Z</time></trkpt><trkpt lat="45.597004947911714" lon="10.118832855665438"><ele>169.57142857142856</ele><time>2026-03-26T17:30:58.987Z</time></trkpt><trkpt lat="45.596969906578586" lon="10.118936756548523"><ele>169.42857142857144</ele><time>2026-03-26T17:31:01.987Z</time></trkpt><trkpt lat="45.596954600302524" lon="10.119037502138434"><ele>169.28571428571428</ele><time>2026-03-26T17:31:04.987Z</time></trkpt><trkpt lat="45.5969400553909" lon="10.119136583550194"><ele>169.14285714285714</ele><time>2026-03-26T17:31:07.987Z</time></trkpt><trkpt lat="45.59692760741416" lon="10.119233722314393"><ele>169.0</ele><time>2026-03-26T17:31:10.987Z</time></trkpt><trkpt lat="45.59691412357381" lon="10.119332732269138"><ele>169.0</ele><time>2026-03-26T17:31:13.987Z</time></trkpt><trkpt lat="45.59690035584235" lon="10.119440900488492"><ele>169.0</ele><time>2026-03-26T17:31:16.987Z</time></trkpt><trkpt lat="45.596896576666325" lon="10.11954143218783"><ele>169.0</ele><time>2026-03-26T17:31:19.987Z</time></trkpt><trkpt lat="45.596888171029285" lon="10.119636699226103"><ele>169.0</ele><time>2026-03-26T17:31:22.987Z</time></trkpt><trkpt lat="45.59688496786876" lon="10.119737691158331"><ele>169.0</ele><time>2026-03-26T17:31:25.987Z</time></trkpt><trkpt lat="45.59689370555807" lon="10.119837642117286"><ele>169.0</ele><time>2026-03-26T17:31:28.987Z</time></trkpt><trkpt lat="45.596887277294016" lon="10.119935855274191"><ele>169.0</ele><time>2026-03-26T17:31:31.987Z</time></trkpt><trkpt lat="45.59687725756165" lon="10.120027223646723"><ele>168.57142857142858</ele><time>2026-03-26T17:31:34.987Z</time></trkpt><trkpt lat="45.59687663025632" lon="10.120121782653513"><ele>168.14285714285714</ele><time>2026-03-26T17:31:37.987Z</time></trkpt><trkpt lat="45.59687772320513" lon="10.120218384501834"><ele>167.71428571428572</ele><time>2026-03-26T17:31:40.987Z</time></trkpt><trkpt lat="45.59687413057198" lon="10.12031310065291"><ele>167.28571428571428</ele><time>2026-03-26T17:31:43.987Z</time></trkpt><trkpt lat="45.596867731210594" lon="10.12041021145576"><ele>166.85714285714286</ele><time>2026-03-26T17:31:46.987Z</time></trkpt><trkpt lat="45.596852888177565" lon="10.12053103340677"><ele>166.42857142857142</ele><time>2026-03-26T17:31:50.987Z</time></trkpt><trkpt lat="45.59685004734728" lon="10.120630023887209"><ele>166.0</ele><time>2026-03-26T17:31:53.987Z</time></trkpt><trkpt lat="45.596868019336284" lon="10.120717539595498"><ele>165.83333333333334</ele><time>2026-03-26T17:31:56.987Z</time></trkpt><trkpt lat="45.59690174269576" lon="10.1207993003968"><ele>165.66666666666669</ele><time>2026-03-26T17:31:59.987Z</time></trkpt><trkpt lat="45.596873020279524" lon="10.120907770658247"><ele>165.5</ele><time>2026-03-26T17:32:02.987Z</time></trkpt><trkpt lat="45.596862511881994" lon="10.121013232680388"><ele>165.33333333333334</ele><time>2026-03-26T17:32:05.987Z</time></trkpt><trkpt lat="45.59685617402271" lon="10.121121626724499"><ele>165.16666666666666</ele><time>2026-03-26T17:32:08.987Z</time></trkpt><trkpt lat="45.59683555936441" lon="10.121253559896909"><ele>165.0</ele><time>2026-03-26T17:32:11.987Z</time></trkpt><trkpt lat="45.59681013154923" lon="10.121376617313173"><ele>165.00000000000003</ele><time>2026-03-26T17:32:14.987Z</time></trkpt><trkpt lat="45.59678846584512" lon="10.12146686793072"><ele>165.0</ele><time>2026-03-26T17:32:17.987Z</time></trkpt><trkpt lat="45.59675572513468" lon="10.121557752410354"><ele>165.0</ele><time>2026-03-26T17:32:20.987Z</time></trkpt><trkpt lat="45.596742679331776" lon="10.121676552631513"><ele>165.0</ele><time>2026-03-26T17:32:23.987Z</time></trkpt><trkpt lat="45.59672217417864" lon="10.121775281433122"><ele>165.0</ele><time>2026-03-26T17:32:26.987Z</time></trkpt><trkpt lat="45.59668809613165" lon="10.121868251341336"><ele>165.00000000000003</ele><time>2026-03-26T17:32:29.987Z</time></trkpt><trkpt lat="45.596680865099394" lon="10.121966234078899"><ele>165.0</ele><time>2026-03-26T17:32:32.987Z</time></trkpt><trkpt lat="45.59666199642206" lon="10.12207836058388"><ele>165.0</ele><time>2026-03-26T17:32:35.987Z</time></trkpt><trkpt lat="45.59666012548105" lon="10.122197687009946"><ele>165.0</ele><time>2026-03-26T17:32:38.987Z</time></trkpt><trkpt lat="45.59664486910114" lon="10.122307987520516"><ele>165.0</ele><time>2026-03-26T17:32:41.987Z</time></trkpt><trkpt lat="45.59661223772379" lon="10.12240869536777"><ele>165.0</ele><time>2026-03-26T17:32:44.987Z</time></trkpt><trkpt lat="45.59662735589754" lon="10.122500062451293"><ele>165.0</ele><time>2026-03-26T17:32:47.987Z</time></trkpt><trkpt lat="45.596590472845115" lon="10.122602971134055"><ele>165.0</ele><time>2026-03-26T17:32:50.987Z</time></trkpt><trkpt lat="45.59657633117254" lon="10.12270524451724"><ele>165.14285714285717</ele><time>2026-03-26T17:32:53.987Z</time></trkpt><trkpt lat="45.59656741529692" lon="10.122806441127555"><ele>165.28571428571428</ele><time>2026-03-26T17:32:56.987Z</time></trkpt><trkpt lat="45.59658576151679" lon="10.12289620029675"><ele>165.42857142857144</ele><time>2026-03-26T17:32:59.987Z</time></trkpt><trkpt lat="45.59659541344822" lon="10.12300059544163"><ele>165.57142857142858</ele><time>2026-03-26T17:33:02.987Z</time></trkpt><trkpt lat="45.59660195583549" lon="10.123104935884248"><ele>165.71428571428572</ele><time>2026-03-26T17:33:05.987Z</time></trkpt><trkpt lat="45.5966059642861" lon="10.123207287529846"><ele>165.85714285714286</ele><time>2026-03-26T17:33:08.987Z</time></trkpt><trkpt lat="45.59660032029044" lon="10.123310599384704"><ele>166.0</ele><time>2026-03-26T17:33:11.987Z</time></trkpt><trkpt lat="45.596606325085325" lon="10.123417138775794"><ele>166.28571428571428</ele><time>2026-03-26T17:33:14.987Z</time></trkpt><trkpt lat="45.59659987353875" lon="10.123520333925597"><ele>166.57142857142858</ele><time>2026-03-26T17:33:17.987Z</time></trkpt><trkpt lat="45.5966084136597" lon="10.123623263773904"><ele>166.85714285714286</ele><time>2026-03-26T17:33:20.987Z</time></trkpt><trkpt lat="45.596610157903655" lon="10.123740617272944"><ele>167.14285714285714</ele><time>2026-03-26T17:33:24.987Z</time></trkpt><trkpt lat="45.59660742897716" lon="10.123849540121373"><ele>167.42857142857144</ele><time>2026-03-26T17:33:27.987Z</time></trkpt><trkpt lat="45.59660430840547" lon="10.123945143687783"><ele>167.71428571428572</ele><time>2026-03-26T17:33:30.987Z</time></trkpt><trkpt lat="45.59662360080215" lon="10.124051396806006"><ele>168.0</ele><time>2026-03-26T17:33:35.986Z</time></trkpt><trkpt lat="45.596633693105154" lon="10.124156625227176"><ele>168.0</ele><time>2026-03-26T17:33:39.987Z</time></trkpt><trkpt lat="45.59663864359921" lon="10.124260447121268"><ele>168.0</ele><time>2026-03-26T17:33:43.986Z</time></trkpt><trkpt lat="45.59663593528945" lon="10.124361514172014"><ele>168.0</ele><time>2026-03-26T17:33:47.987Z</time></trkpt><trkpt lat="45.59666083177921" lon="10.124474066476047"><ele>168.0</ele><time>2026-03-26T17:33:50.987Z</time></trkpt><trkpt lat="45.59664837111504" lon="10.124568962238694"><ele>168.0</ele><time>2026-03-26T17:33:52.987Z</time></trkpt><trkpt lat="45.59663848227115" lon="10.124686114830466"><ele>168.0</ele><time>2026-03-26T17:33:54.987Z</time></trkpt><trkpt lat="45.59661501744814" lon="10.124805629306252"><ele>168.0</ele><time>2026-03-26T17:33:57.987Z</time></trkpt><trkpt lat="45.59658037091167" lon="10.124890952667338"><ele>168.0</ele><time>2026-03-26T17:33:59.987Z</time></trkpt><trkpt lat="45.5965602614191" lon="10.125005641473305"><ele>168.0</ele><time>2026-03-26T17:34:02.987Z</time></trkpt><trkpt lat="45.59655085673877" lon="10.12511709771543"><ele>168.0</ele><time>2026-03-26T17:34:05.987Z</time></trkpt><trkpt lat="45.596552204612074" lon="10.125223653654478"><ele>168.0</ele><time>2026-03-26T17:34:08.986Z</time></trkpt><trkpt lat="45.596553306202054" lon="10.125339123444654"><ele>168.0</ele><time>2026-03-26T17:34:11.986Z</time></trkpt><trkpt lat="45.596548936765245" lon="10.125438930306512"><ele>168.0</ele><time>2026-03-26T17:34:14.986Z</time></trkpt><trkpt lat="45.5965462835366" lon="10.125545531408438"><ele>168.0</ele><time>2026-03-26T17:34:17.986Z</time></trkpt><trkpt lat="45.59654895112701" lon="10.125653693443235"><ele>168.0</ele><time>2026-03-26T17:34:20.986Z</time></trkpt><trkpt lat="45.59654803279079" lon="10.125765256207501"><ele>168.0</ele><time>2026-03-26T17:34:23.986Z</time></trkpt><trkpt lat="45.59654136848566" lon="10.125858395620215"><ele>168.0</ele><time>2026-03-26T17:34:26.986Z</time></trkpt><trkpt lat="45.59653656065376" lon="10.125966214945814"><ele>168.0</ele><time>2026-03-26T17:34:29.986Z</time></trkpt><trkpt lat="45.596530985305805" lon="10.126080508817509"><ele>168.0</ele><time>2026-03-26T17:34:32.986Z</time></trkpt><trkpt lat="45.596545702639695" lon="10.126176371408247"><ele>168.0</ele><time>2026-03-26T17:34:35.986Z</time></trkpt><trkpt lat="45.596546685943686" lon="10.126269733659838"><ele>168.0</ele><time>2026-03-26T17:34:38.986Z</time></trkpt><trkpt lat="45.59653213672308" lon="10.126373652150157"><ele>168.0</ele><time>2026-03-26T17:34:41.986Z</time></trkpt><trkpt lat="45.59651913143883" lon="10.126470542806231"><ele>168.0</ele><time>2026-03-26T17:34:44.986Z</time></trkpt><trkpt lat="45.59651262368133" lon="10.12658206986557"><ele>168.0</ele><time>2026-03-26T17:34:47.986Z</time></trkpt><trkpt lat="45.59650998367923" lon="10.126711112389097"><ele>168.0</ele><time>2026-03-26T17:34:50.986Z</time></trkpt><trkpt lat="45.59649826441659" lon="10.126827170898403"><ele>167.5</ele><time>2026-03-26T17:34:53.986Z</time></trkpt><trkpt lat="45.59647468100303" lon="10.126935207671746"><ele>167.0</ele><time>2026-03-26T17:34:56.986Z</time></trkpt><trkpt lat="45.596467047264916" lon="10.127062692914011"><ele>166.5</ele><time>2026-03-26T17:34:59.986Z</time></trkpt><trkpt lat="45.59647112614874" lon="10.127180351937588"><ele>166.0</ele><time>2026-03-26T17:35:02.986Z</time></trkpt><trkpt lat="45.59646083033115" lon="10.127284721283212"><ele>165.5</ele><time>2026-03-26T17:35:05.986Z</time></trkpt><trkpt lat="45.596467965737986" lon="10.127399003604962"><ele>165.0</ele><time>2026-03-26T17:35:08.986Z</time></trkpt><trkpt lat="45.59648300366912" lon="10.127512886032498"><ele>164.71428571428572</ele><time>2026-03-26T17:35:11.986Z</time></trkpt><trkpt lat="45.59649312403138" lon="10.127623071495451"><ele>164.42857142857144</ele><time>2026-03-26T17:35:14.986Z</time></trkpt><trkpt lat="45.59649897687071" lon="10.127726997936179"><ele>164.14285714285717</ele><time>2026-03-26T17:35:17.986Z</time></trkpt><trkpt lat="45.59650933551696" lon="10.127826930267576"><ele>163.85714285714286</ele><time>2026-03-26T17:35:20.986Z</time></trkpt><trkpt lat="45.59653084584031" lon="10.127915258856447"><ele>163.57142857142856</ele><time>2026-03-26T17:35:23.986Z</time></trkpt><trkpt lat="45.5965563125208" lon="10.128029411696499"><ele>163.2857142857143</ele><time>2026-03-26T17:35:27.986Z</time></trkpt><trkpt lat="45.59656800368442" lon="10.128126444635047"><ele>163.0</ele><time>2026-03-26T17:35:30.986Z</time></trkpt><trkpt lat="45.59657907068853" lon="10.128224765532583"><ele>162.66666666666669</ele><time>2026-03-26T17:35:33.986Z</time></trkpt><trkpt lat="45.59659144754405" lon="10.128326831433727"><ele>162.33333333333334</ele><time>2026-03-26T17:35:36.986Z</time></trkpt><trkpt lat="45.59660284649367" lon="10.128425929327411"><ele>162.0</ele><time>2026-03-26T17:35:39.985Z</time></trkpt><trkpt lat="45.59662206953601" lon="10.128526498515757"><ele>161.66666666666666</ele><time>2026-03-26T17:35:43.985Z</time></trkpt><trkpt lat="45.59663776286599" lon="10.128634686436639"><ele>161.33333333333331</ele><time>2026-03-26T17:35:47.986Z</time></trkpt><trkpt lat="45.59665332504004" lon="10.128743897619083"><ele>161.0</ele><time>2026-03-26T17:35:51.986Z</time></trkpt><trkpt lat="45.5966716899237" lon="10.12885516868492"><ele>161.0</ele><time>2026-03-26T17:35:55.985Z</time></trkpt><trkpt lat="45.59669395411581" lon="10.128970485461934"><ele>161.0</ele><time>2026-03-26T17:35:58.985Z</time></trkpt><trkpt lat="45.59672856991852" lon="10.129074983094354"><ele>161.0</ele><time>2026-03-26T17:36:01.985Z</time></trkpt><trkpt lat="45.59675759570939" lon="10.129188569090246"><ele>161.0</ele><time>2026-03-26T17:36:04.985Z</time></trkpt><trkpt lat="45.59677527651125" lon="10.129307602672869"><ele>161.0</ele><time>2026-03-26T17:36:07.985Z</time></trkpt><trkpt lat="45.5967904524886" lon="10.129410620103256"><ele>161.0</ele><time>2026-03-26T17:36:10.985Z</time></trkpt><trkpt lat="45.596818818282806" lon="10.129506755716342"><ele>161.33333333333331</ele><time>2026-03-26T17:36:13.985Z</time></trkpt><trkpt lat="45.59681691027148" lon="10.129627266514959"><ele>161.66666666666666</ele><time>2026-03-26T17:36:16.985Z</time></trkpt><trkpt lat="45.59682993228728" lon="10.129744485291896"><ele>162.0</ele><time>2026-03-26T17:36:20.985Z</time></trkpt><trkpt lat="45.59682790444338" lon="10.129863523522879"><ele>162.33333333333334</ele><time>2026-03-26T17:36:24.985Z</time></trkpt><trkpt lat="45.59680281361597" lon="10.129963672563969"><ele>162.66666666666669</ele><time>2026-03-26T17:36:27.985Z</time></trkpt><trkpt lat="45.596786484591156" lon="10.13006416982063"><ele>163.0</ele><time>2026-03-26T17:36:30.985Z</time></trkpt><trkpt lat="45.59679022835074" lon="10.130177577685128"><ele>163.0</ele><time>2026-03-26T17:36:34.985Z</time></trkpt><trkpt lat="45.596795649382294" lon="10.130290848048404"><ele>163.0</ele><time>2026-03-26T17:36:38.985Z</time></trkpt><trkpt lat="45.59678777238484" lon="10.130406658138929"><ele>163.0</ele><time>2026-03-26T17:36:42.985Z</time></trkpt><trkpt lat="45.59675478827686" lon="10.130499136391396"><ele>163.0</ele><time>2026-03-26T17:36:45.985Z</time></trkpt><trkpt lat="45.59675002179439" lon="10.130589741425482"><ele>163.0</ele><time>2026-03-26T17:36:48.985Z</time></trkpt><trkpt lat="45.59675606238158" lon="10.130707269654808"><ele>163.0</ele><time>2026-03-26T17:36:51.985Z</time></trkpt><trkpt lat="45.59675244819457" lon="10.130827190907144"><ele>163.16666666666669</ele><time>2026-03-26T17:36:54.985Z</time></trkpt><trkpt lat="45.5967396046551" lon="10.130948056490732"><ele>163.33333333333334</ele><time>2026-03-26T17:36:57.985Z</time></trkpt><trkpt lat="45.59672914094825" lon="10.131058962149602"><ele>163.5</ele><time>2026-03-26T17:37:00.985Z</time></trkpt><trkpt lat="45.59670903112023" lon="10.131180634179914"><ele>163.66666666666666</ele><time>2026-03-26T17:37:03.985Z</time></trkpt><trkpt lat="45.59668650353508" lon="10.131291165562997"><ele>163.83333333333331</ele><time>2026-03-26T17:37:06.985Z</time></trkpt><trkpt lat="45.596671866651135" lon="10.131396069167074"><ele>164.0</ele><time>2026-03-26T17:37:09.985Z</time></trkpt><trkpt lat="45.59664954868765" lon="10.131503127743477"><ele>164.5</ele><time>2026-03-26T17:37:12.985Z</time></trkpt><trkpt lat="45.596638137408824" lon="10.131606893565749"><ele>165.0</ele><time>2026-03-26T17:37:15.985Z</time></trkpt><trkpt lat="45.596635538988885" lon="10.131722471385398"><ele>165.5</ele><time>2026-03-26T17:37:18.985Z</time></trkpt><trkpt lat="45.596598487552015" lon="10.13182411993244"><ele>166.0</ele><time>2026-03-26T17:37:21.985Z</time></trkpt><trkpt lat="45.59654227769858" lon="10.131921465936014"><ele>166.5</ele><time>2026-03-26T17:37:24.985Z</time></trkpt><trkpt lat="45.59650765224519" lon="10.132023407813785"><ele>167.0</ele><time>2026-03-26T17:37:27.985Z</time></trkpt><trkpt lat="45.59645747817206" lon="10.132090942043588"><ele>167.0</ele><time>2026-03-26T17:37:30.985Z</time></trkpt><trkpt lat="45.596383212710805" lon="10.132119378255073"><ele>167.0</ele><time>2026-03-26T17:37:33.985Z</time></trkpt><trkpt lat="45.59629574619554" lon="10.132096928205671"><ele>167.0</ele><time>2026-03-26T17:37:36.985Z</time></trkpt><trkpt lat="45.59622752469212" lon="10.132063425442421"><ele>167.0</ele><time>2026-03-26T17:37:39.985Z</time></trkpt><trkpt lat="45.59615594593604" lon="10.13199310297907"><ele>167.0</ele><time>2026-03-26T17:37:42.985Z</time></trkpt><trkpt lat="45.596091371759535" lon="10.131933770810672"><ele>167.0</ele><time>2026-03-26T17:37:45.985Z</time></trkpt><trkpt lat="45.59603095605912" lon="10.131888638876617"><ele>166.66666666666666</ele><time>2026-03-26T17:37:48.985Z</time></trkpt><trkpt lat="45.59595497891726" lon="10.131870463923592"><ele>166.33333333333331</ele><time>2026-03-26T17:37:52.985Z</time></trkpt><trkpt lat="45.59589411214896" lon="10.131800600860549"><ele>166.0</ele><time>2026-03-26T17:37:55.984Z</time></trkpt><trkpt lat="45.59583771578143" lon="10.131738674407238"><ele>165.66666666666666</ele><time>2026-03-26T17:37:58.984Z</time></trkpt><trkpt lat="45.5957787357112" lon="10.131687185512238"><ele>165.33333333333334</ele><time>2026-03-26T17:38:01.984Z</time></trkpt><trkpt lat="45.59571537849066" lon="10.131621162145834"><ele>165.0</ele><time>2026-03-26T17:38:04.984Z</time></trkpt><trkpt lat="45.59563096251673" lon="10.131601286942113"><ele>165.0</ele><time>2026-03-26T17:38:08.984Z</time></trkpt><trkpt lat="45.59555812071393" lon="10.131641264317016"><ele>165.0</ele><time>2026-03-26T17:38:12.984Z</time></trkpt><trkpt lat="45.59549030951181" lon="10.131642747849234"><ele>165.0</ele><time>2026-03-26T17:38:15.984Z</time></trkpt><trkpt lat="45.595414768448556" lon="10.131633703989753"><ele>165.0</ele><time>2026-03-26T17:38:18.984Z</time></trkpt><trkpt lat="45.59534221106413" lon="10.131612277861944"><ele>165.0</ele><time>2026-03-26T17:38:21.984Z</time></trkpt><trkpt lat="45.595264666983084" lon="10.131603695908419"><ele>165.0</ele><time>2026-03-26T17:38:24.984Z</time></trkpt><trkpt lat="45.595186289274764" lon="10.131606802418446"><ele>164.2857142857143</ele><time>2026-03-26T17:38:27.984Z</time></trkpt><trkpt lat="45.59511348288655" lon="10.131615377932889"><ele>163.57142857142858</ele><time>2026-03-26T17:38:30.984Z</time></trkpt><trkpt lat="45.595035006744084" lon="10.131631871212585"><ele>162.85714285714286</ele><time>2026-03-26T17:38:33.984Z</time></trkpt><trkpt lat="45.59498804284804" lon="10.131696381515239"><ele>162.14285714285717</ele><time>2026-03-26T17:38:36.984Z</time></trkpt><trkpt lat="45.59497964602505" lon="10.131795805984302"><ele>161.42857142857144</ele><time>2026-03-26T17:38:40.984Z</time></trkpt><trkpt lat="45.594973707974425" lon="10.131902783954805"><ele>160.71428571428572</ele><time>2026-03-26T17:38:44.984Z</time></trkpt><trkpt lat="45.59496906042277" lon="10.131996924239518"><ele>160.0</ele><time>2026-03-26T17:38:47.984Z</time></trkpt><trkpt lat="45.59494713761158" lon="10.132084029236777"><ele>160.0</ele><time>2026-03-26T17:38:50.984Z</time></trkpt><trkpt lat="45.59493508498764" lon="10.132179708149739"><ele>160.0</ele><time>2026-03-26T17:38:53.984Z</time></trkpt><trkpt lat="45.59489690305704" lon="10.132259892589882"><ele>160.0</ele><time>2026-03-26T17:38:55.984Z</time></trkpt><trkpt lat="45.594883377820736" lon="10.132365881224379"><ele>160.0</ele><time>2026-03-26T17:38:58.984Z</time></trkpt><trkpt lat="45.59487758883182" lon="10.132475105681221"><ele>160.0</ele><time>2026-03-26T17:39:01.984Z</time></trkpt><trkpt lat="45.59485675489957" lon="10.132580340752845"><ele>160.0</ele><time>2026-03-26T17:39:04.984Z</time></trkpt><trkpt lat="45.594846000513506" lon="10.132676075491142"><ele>160.0</ele><time>2026-03-26T17:39:07.984Z</time></trkpt><trkpt lat="45.5948245686179" lon="10.132786801667503"><ele>160.14285714285714</ele><time>2026-03-26T17:39:10.984Z</time></trkpt><trkpt lat="45.594802267017656" lon="10.13289138553943"><ele>160.28571428571428</ele><time>2026-03-26T17:39:13.984Z</time></trkpt><trkpt lat="45.59476742208036" lon="10.132994045062059"><ele>160.42857142857144</ele><time>2026-03-26T17:39:16.984Z</time></trkpt><trkpt lat="45.594752853395896" lon="10.133091746095573"><ele>160.57142857142856</ele><time>2026-03-26T17:39:19.984Z</time></trkpt><trkpt lat="45.5947420215949" lon="10.13319537107228"><ele>160.71428571428572</ele><time>2026-03-26T17:39:22.984Z</time></trkpt><trkpt lat="45.5947155080881" lon="10.133296245084038"><ele>160.85714285714286</ele><time>2026-03-26T17:39:25.984Z</time></trkpt><trkpt lat="45.594714149732845" lon="10.13339347983524"><ele>161.0</ele><time>2026-03-26T17:39:28.984Z</time></trkpt><trkpt lat="45.594707710625805" lon="10.133499363937227"><ele>161.42857142857142</ele><time>2026-03-26T17:39:31.984Z</time></trkpt><trkpt lat="45.59468481149799" lon="10.133597634640696"><ele>161.85714285714286</ele><time>2026-03-26T17:39:34.984Z</time></trkpt><trkpt lat="45.59467264381307" lon="10.133698280067065"><ele>162.28571428571428</ele><time>2026-03-26T17:39:37.984Z</time></trkpt><trkpt lat="45.59466307474949" lon="10.133798233571458"><ele>162.71428571428572</ele><time>2026-03-26T17:39:40.984Z</time></trkpt><trkpt lat="45.594638522173014" lon="10.133894861594275"><ele>163.14285714285714</ele><time>2026-03-26T17:39:43.984Z</time></trkpt><trkpt lat="45.594594060115995" lon="10.133989148733267"><ele>163.57142857142856</ele><time>2026-03-26T17:39:46.984Z</time></trkpt><trkpt lat="45.594571900288436" lon="10.134090253201434"><ele>164.0</ele><time>2026-03-26T17:39:49.984Z</time></trkpt><trkpt lat="45.5945534845356" lon="10.13418962515485"><ele>164.0</ele><time>2026-03-26T17:39:52.984Z</time></trkpt><trkpt lat="45.59453166298536" lon="10.134289255591028"><ele>164.0</ele><time>2026-03-26T17:39:55.984Z</time></trkpt><trkpt lat="45.594520803915515" lon="10.134386788734888"><ele>164.0</ele><time>2026-03-26T17:39:58.984Z</time></trkpt><trkpt lat="45.5945114354081" lon="10.134486406445994"><ele>164.0</ele><time>2026-03-26T17:40:02.983Z</time></trkpt><trkpt lat="45.59453710123209" lon="10.134614125535226"><ele>164.0</ele><time>2026-03-26T17:40:38.984Z</time></trkpt></trkseg></trk></gpx>